Wetterdaten: Montag, 06.07.2015
Datum Zeit Temp. Aussen +5cm Feuchte Auss BlattFeu 1 Luftdruck Regen Sonnenschein Regendauer Solar Windben
06.07.2015 00:00 18,4 C 17,2 C 89 % 0 lf 1017,7 hPa 0,0 l/m 0 min 0 min 0 W/m 8,4 km/h (2 Bft)
06.07.2015 00:02 18,4 C 17,2 C 88 % 0 lf 1017,7 hPa 0,0 l/m 0 min 0 min 0 W/m 6,3 km/h (2 Bft)
06.07.2015 00:05 18,4 C 17,2 C 88 % 0 lf 1017,7 hPa 0,0 l/m 0 min 0 min 0 W/m 8,4 km/h (2 Bft)
06.07.2015 00:06 18,4 C 17,2 C 88 % 0 lf 1017,7 hPa 0,0 l/m 0 min 0 min 0 W/m 8,4 km/h (2 Bft)
06.07.2015 00:08 18,4 C 17,2 C 88 % 0 lf 1017,7 hPa 0,0 l/m 0 min 0 min 0 W/m 10,5 km/h (2 Bft)
06.07.2015 00:10 18,4 C 17,2 C 87 % 0 lf 1017,7 hPa 0,0 l/m 0 min 0 min 0 W/m 12,6 km/h (3 Bft)
06.07.2015 00:12 18,4 C 17,2 C 87 % 0 lf 1017,7 hPa 0,0 l/m 0 min 0 min 0 W/m 6,3 km/h (2 Bft)
06.07.2015 00:14 18,4 C 17,2 C 87 % 0 lf 1017,7 hPa 0,0 l/m 0 min 0 min 0 W/m 10,5 km/h (2 Bft)
06.07.2015 00:16 18,4 C 17,2 C 87 % 0 lf 1017,8 hPa 0,0 l/m 0 min 0 min 0 W/m 6,3 km/h (2 Bft)
06.07.2015 00:18 18,4 C 17,2 C 87 % 0 lf 1017,8 hPa 0,0 l/m 0 min 0 min 0 W/m 4,2 km/h (1 Bft)
06.07.2015 00:20 18,4 C 16,7 C 87 % 0 lf 1017,8 hPa 0,0 l/m 0 min 0 min 0 W/m 8,4 km/h (2 Bft)
06.07.2015 00:22 18,4 C 16,7 C 87 % 0 lf 1017,8 hPa 0,0 l/m 0 min 0 min 0 W/m 6,3 km/h (2 Bft)
06.07.2015 00:24 18,4 C 16,7 C 87 % 0 lf 1017,7 hPa 0,0 l/m 0 min 0 min 0 W/m 6,3 km/h (2 Bft)
06.07.2015 00:26 18,3 C 16,7 C 87 % 0 lf 1017,8 hPa 0,0 l/m 0 min 0 min 0 W/m 8,4 km/h (2 Bft)
06.07.2015 00:28 18,3 C 16,7 C 87 % 0 lf 1017,7 hPa 0,0 l/m 0 min 0 min 0 W/m 6,3 km/h (2 Bft)
06.07.2015 00:30 18,3 C 16,7 C 87 % 0 lf 1017,8 hPa 0,0 l/m 0 min 0 min 0 W/m 4,2 km/h (1 Bft)
06.07.2015 00:32 18,3 C 16,7 C 87 % 0 lf 1017,8 hPa 0,0 l/m 0 min 0 min 0 W/m 6,3 km/h (2 Bft)
06.07.2015 00:34 18,2 C 16,7 C 87 % 0 lf 1017,8 hPa 0,0 l/m 0 min 0 min 0 W/m 4,2 km/h (1 Bft)
06.07.2015 00:36 18,2 C 16,7 C 87 % 0 lf 1017,8 hPa 0,0 l/m 0 min 0 min 0 W/m 6,3 km/h (2 Bft)
06.07.2015 00:38 18,2 C 16,7 C 87 % 0 lf 1017,9 hPa 0,0 l/m 0 min 0 min 0 W/m 4,2 km/h (1 Bft)
06.07.2015 00:40 18,2 C 16,7 C 87 % 0 lf 1017,8 hPa 0,0 l/m 0 min 0 min 0 W/m 6,3 km/h (2 Bft)
06.07.2015 00:42 18,2 C 16,7 C 87 % 0 lf 1017,9 hPa 0,0 l/m 0 min 0 min 0 W/m 6,3 km/h (2 Bft)
06.07.2015 00:44 18,1 C 16,7 C 87 % 0 lf 1017,9 hPa 0,0 l/m 0 min 0 min 0 W/m 6,3 km/h (2 Bft)
06.07.2015 00:46 18,1 C 16,7 C 87 % 0 lf 1017,9 hPa 0,0 l/m 0 min 0 min 0 W/m 6,3 km/h (2 Bft)
06.07.2015 00:48 18,1 C 16,7 C 87 % 0 lf 1017,9 hPa 0,0 l/m 0 min 0 min 0 W/m 8,4 km/h (2 Bft)
06.07.2015 00:50 18,1 C 16,7 C 87 % 0 lf 1017,9 hPa 0,0 l/m 0 min 0 min 0 W/m 8,4 km/h (2 Bft)
06.07.2015 00:52 18,1 C 16,7 C 87 % 0 lf 1018,0 hPa 0,0 l/m 0 min 0 min 0 W/m 8,4 km/h (2 Bft)
06.07.2015 00:54 18,0 C 16,1 C 87 % 0 lf 1017,9 hPa 0,0 l/m 0 min 0 min 0 W/m 6,3 km/h (2 Bft)
06.07.2015 00:56 18,0 C 16,1 C 87 % 0 lf 1018,0 hPa 0,0 l/m 0 min 0 min 0 W/m 10,5 km/h (2 Bft)
06.07.2015 00:58 18,0 C 16,7 C 87 % 0 lf 1017,9 hPa 0,0 l/m 0 min 0 min 0 W/m 10,5 km/h (2 Bft)
06.07.2015 01:00 18,0 C 16,7 C 87 % 0 lf 1018,0 hPa 0,0 l/m 0 min 0 min 0 W/m 6,3 km/h (2 Bft)
06.07.2015 01:02 18,0 C 16,7 C 87 % 0 lf 1018,0 hPa 0,0 l/m 0 min 0 min 0 W/m 6,3 km/h (2 Bft)
06.07.2015 01:04 18,0 C 16,7 C 87 % 0 lf 1018,0 hPa 0,0 l/m 0 min 0 min 0 W/m 10,5 km/h (2 Bft)
06.07.2015 01:06 18,0 C 16,7 C 87 % 0 lf 1018,0 hPa 0,0 l/m 0 min 0 min 0 W/m 10,5 km/h (2 Bft)
06.07.2015 01:08 17,9 C 16,7 C 87 % 0 lf 1018,0 hPa 0,0 l/m 0 min 0 min 0 W/m 4,2 km/h (1 Bft)
06.07.2015 01:10 17,9 C 16,1 C 87 % 0 lf 1018,0 hPa 0,0 l/m 0 min 0 min 0 W/m 6,3 km/h (2 Bft)
06.07.2015 01:12 17,9 C 16,1 C 87 % 0 lf 1018,0 hPa 0,0 l/m 0 min 0 min 0 W/m 10,5 km/h (2 Bft)
06.07.2015 01:14 17,9 C 16,1 C 87 % 0 lf 1018,0 hPa 0,0 l/m 0 min 0 min 0 W/m 8,4 km/h (2 Bft)
06.07.2015 01:16 17,8 C 16,1 C 87 % 0 lf 1018,1 hPa 0,0 l/m 0 min 0 min 0 W/m 6,3 km/h (2 Bft)
06.07.2015 01:18 17,8 C 16,1 C 87 % 0 lf 1018,2 hPa 0,0 l/m 0 min 0 min 0 W/m 6,3 km/h (2 Bft)
06.07.2015 01:20 17,8 C 16,1 C 87 % 0 lf 1018,2 hPa 0,0 l/m 0 min 0 min 0 W/m 6,3 km/h (2 Bft)
06.07.2015 01:22 17,7 C 16,1 C 87 % 0 lf 1018,3 hPa 0,0 l/m 0 min 0 min 0 W/m 6,3 km/h (2 Bft)
06.07.2015 01:24 17,7 C 16,1 C 87 % 0 lf 1018,3 hPa 0,0 l/m 0 min 0 min 0 W/m 8,4 km/h (2 Bft)
06.07.2015 01:26 17,7 C 16,1 C 87 % 0 lf 1018,3 hPa 0,0 l/m 0 min 0 min 0 W/m 8,4 km/h (2 Bft)
06.07.2015 01:28 17,6 C 16,1 C 87 % 0 lf 1018,4 hPa 0,0 l/m 0 min 0 min 0 W/m 6,3 km/h (2 Bft)
06.07.2015 01:30 17,6 C 16,1 C 87 % 0 lf 1018,4 hPa 0,0 l/m 0 min 0 min 0 W/m 6,3 km/h (2 Bft)
06.07.2015 01:32 17,5 C 15,6 C 87 % 0 lf 1018,4 hPa 0,0 l/m 0 min 0 min 0 W/m 6,3 km/h (2 Bft)
06.07.2015 01:34 17,5 C 15,6 C 88 % 0 lf 1018,4 hPa 0,0 l/m 0 min 0 min 0 W/m 6,3 km/h (2 Bft)
06.07.2015 01:36 17,4 C 15,6 C 88 % 0 lf 1018,4 hPa 0,0 l/m 0 min 0 min 0 W/m 6,3 km/h (2 Bft)
06.07.2015 01:38 17,4 C 15,6 C 88 % 0 lf 1018,5 hPa 0,0 l/m 0 min 0 min 0 W/m 6,3 km/h (2 Bft)
06.07.2015 01:40 17,4 C 15,6 C 88 % 0 lf 1018,5 hPa 0,0 l/m 0 min 0 min 0 W/m 4,2 km/h (1 Bft)
06.07.2015 01:42 17,4 C 15,6 C 88 % 0 lf 1018,5 hPa 0,0 l/m 0 min 0 min 0 W/m 4,2 km/h (1 Bft)
06.07.2015 01:44 17,3 C 15,6 C 88 % 0 lf 1018,6 hPa 0,0 l/m 0 min 0 min 0 W/m 2,1 km/h (1 Bft)
06.07.2015 01:46 17,3 C 15,6 C 88 % 0 lf 1018,6 hPa 0,0 l/m 0 min 0 min 0 W/m 2,1 km/h (1 Bft)
06.07.2015 01:48 17,3 C 15,6 C 88 % 0 lf 1018,6 hPa 0,0 l/m 0 min 0 min 0 W/m 4,2 km/h (1 Bft)
06.07.2015 01:50 17,2 C 15,6 C 88 % 0 lf 1018,6 hPa 0,0 l/m 0 min 0 min 0 W/m 4,2 km/h (1 Bft)
06.07.2015 01:52 17,2 C 15,0 C 89 % 0 lf 1018,6 hPa 0,0 l/m 0 min 0 min 0 W/m 4,2 km/h (1 Bft)
06.07.2015 01:54 17,2 C 15,0 C 89 % 0 lf 1018,6 hPa 0,0 l/m 0 min 0 min 0 W/m 4,2 km/h (1 Bft)
06.07.2015 01:56 17,2 C 15,6 C 89 % 0 lf 1018,6 hPa 0,0 l/m 0 min 0 min 0 W/m 6,3 km/h (2 Bft)
06.07.2015 01:58 17,1 C 15,6 C 89 % 0 lf 1018,6 hPa 0,0 l/m 0 min 0 min 0 W/m 6,3 km/h (2 Bft)
06.07.2015 02:00 17,2 C 15,6 C 89 % 0 lf 1018,7 hPa 0,0 l/m 0 min 0 min 0 W/m 6,3 km/h (2 Bft)
06.07.2015 02:02 17,2 C 15,6 C 89 % 0 lf 1018,8 hPa 0,0 l/m 0 min 0 min 0 W/m 4,2 km/h (1 Bft)
06.07.2015 02:04 17,2 C 15,6 C 89 % 0 lf 1018,8 hPa 0,0 l/m 0 min 0 min 0 W/m 4,2 km/h (1 Bft)
06.07.2015 02:06 17,2 C 16,1 C 89 % 0 lf 1018,8 hPa 0,0 l/m 0 min 0 min 0 W/m 6,3 km/h (2 Bft)
06.07.2015 02:08 17,2 C 16,1 C 89 % 0 lf 1018,8 hPa 0,0 l/m 0 min 0 min 0 W/m 6,3 km/h (2 Bft)
06.07.2015 02:10 17,2 C 15,6 C 89 % 0 lf 1018,8 hPa 0,0 l/m 0 min 0 min 0 W/m 4,2 km/h (1 Bft)
06.07.2015 02:12 17,2 C 15,6 C 89 % 0 lf 1018,8 hPa 0,0 l/m 0 min 0 min 0 W/m 6,3 km/h (2 Bft)
06.07.2015 02:14 17,2 C 15,6 C 89 % 0 lf 1018,8 hPa 0,0 l/m 0 min 0 min 0 W/m 6,3 km/h (2 Bft)
06.07.2015 02:16 17,2 C 15,6 C 90 % 0 lf 1018,8 hPa 0,0 l/m 0 min 0 min 0 W/m 6,3 km/h (2 Bft)
06.07.2015 02:18 17,2 C 15,6 C 90 % 0 lf 1018,8 hPa 0,0 l/m 0 min 0 min 0 W/m 4,2 km/h (1 Bft)
06.07.2015 02:20 17,1 C 15,6 C 90 % 0 lf 1018,8 hPa 0,0 l/m 0 min 0 min 0 W/m 6,3 km/h (2 Bft)
06.07.2015 02:22 17,1 C 15,6 C 90 % 0 lf 1018,8 hPa 0,0 l/m 0 min 0 min 0 W/m 6,3 km/h (2 Bft)
06.07.2015 02:24 17,1 C 15,6 C 90 % 0 lf 1018,9 hPa 0,0 l/m 0 min 0 min 0 W/m 4,2 km/h (1 Bft)
06.07.2015 02:26 17,1 C 15,6 C 90 % 0 lf 1018,9 hPa 0,0 l/m 0 min 0 min 0 W/m 6,3 km/h (2 Bft)
06.07.2015 02:28 17,1 C 15,6 C 90 % 0 lf 1018,9 hPa 0,0 l/m 0 min 0 min 0 W/m 6,3 km/h (2 Bft)
06.07.2015 02:30 17,1 C 15,6 C 90 % 0 lf 1018,9 hPa 0,0 l/m 0 min 0 min 0 W/m 6,3 km/h (2 Bft)
06.07.2015 02:32 17,1 C 15,6 C 90 % 0 lf 1019,0 hPa 0,0 l/m 0 min 0 min 0 W/m 8,4 km/h (2 Bft)
06.07.2015 02:34 17,1 C 16,1 C 90 % 0 lf 1019,0 hPa 0,0 l/m 0 min 0 min 0 W/m 6,3 km/h (2 Bft)
06.07.2015 02:36 17,1 C 16,1 C 90 % 0 lf 1019,0 hPa 0,0 l/m 0 min 0 min 0 W/m 6,3 km/h (2 Bft)
06.07.2015 02:38 17,1 C 16,1 C 90 % 0 lf 1019,0 hPa 0,0 l/m 0 min 0 min 0 W/m 6,3 km/h (2 Bft)
06.07.2015 02:40 17,1 C 15,6 C 90 % 0 lf 1019,0 hPa 0,0 l/m 0 min 0 min 0 W/m 12,6 km/h (3 Bft)
06.07.2015 02:42 17,1 C 15,6 C 90 % 0 lf 1019,0 hPa 0,0 l/m 0 min 0 min 0 W/m 8,4 km/h (2 Bft)
06.07.2015 02:44 17,1 C 15,6 C 90 % 0 lf 1019,1 hPa 0,0 l/m 0 min 0 min 0 W/m 6,3 km/h (2 Bft)
06.07.2015 02:46 17,0 C 15,6 C 90 % 0 lf 1019,2 hPa 0,0 l/m 0 min 0 min 0 W/m 12,6 km/h (3 Bft)
06.07.2015 02:48 17,0 C 15,6 C 90 % 0 lf 1019,2 hPa 0,0 l/m 0 min 0 min 0 W/m 10,5 km/h (2 Bft)
06.07.2015 02:50 16,9 C 15,6 C 90 % 0 lf 1019,2 hPa 0,0 l/m 0 min 0 min 0 W/m 10,5 km/h (2 Bft)
06.07.2015 02:52 16,9 C 15,6 C 90 % 0 lf 1019,2 hPa 0,0 l/m 0 min 0 min 0 W/m 10,5 km/h (2 Bft)
06.07.2015 02:54 16,9 C 15,6 C 90 % 0 lf 1019,2 hPa 0,0 l/m 0 min 0 min 0 W/m 14,6 km/h (3 Bft)
06.07.2015 02:56 16,9 C 15,6 C 91 % 0 lf 1019,2 hPa 0,0 l/m 0 min 0 min 0 W/m 10,5 km/h (2 Bft)
06.07.2015 02:58 16,9 C 15,6 C 91 % 0 lf 1019,2 hPa 0,0 l/m 0 min 0 min 0 W/m 8,4 km/h (2 Bft)
06.07.2015 03:00 16,8 C 15,6 C 91 % 0 lf 1019,2 hPa 0,0 l/m 0 min 0 min 0 W/m 12,6 km/h (3 Bft)
06.07.2015 03:02 16,8 C 15,6 C 91 % 0 lf 1019,3 hPa 0,0 l/m 0 min 0 min 0 W/m 10,5 km/h (2 Bft)
06.07.2015 03:04 16,8 C 15,6 C 90 % 0 lf 1019,3 hPa 0,0 l/m 0 min 0 min 0 W/m 12,6 km/h (3 Bft)
06.07.2015 03:06 16,8 C 15,6 C 90 % 0 lf 1019,3 hPa 0,0 l/m 0 min 0 min 0 W/m 10,5 km/h (2 Bft)
06.07.2015 03:08 16,7 C 15,6 C 90 % 0 lf 1019,3 hPa 0,0 l/m 0 min 0 min 0 W/m 8,4 km/h (2 Bft)
06.07.2015 03:10 16,7 C 15,6 C 90 % 0 lf 1019,3 hPa 0,0 l/m 0 min 0 min 0 W/m 12,6 km/h (3 Bft)
06.07.2015 03:12 16,7 C 15,6 C 89 % 0 lf 1019,3 hPa 0,0 l/m 0 min 0 min 0 W/m 12,6 km/h (3 Bft)
06.07.2015 03:14 16,6 C 15,6 C 89 % 0 lf 1019,3 hPa 0,0 l/m 0 min 0 min 0 W/m 12,6 km/h (3 Bft)
06.07.2015 03:16 16,6 C 15,0 C 89 % 0 lf 1019,3 hPa 0,0 l/m 0 min 0 min 0 W/m 10,5 km/h (2 Bft)
06.07.2015 03:18 16,5 C 15,0 C 88 % 0 lf 1019,4 hPa 0,0 l/m 0 min 0 min 0 W/m 12,6 km/h (3 Bft)
06.07.2015 03:20 16,5 C 15,0 C 88 % 0 lf 1019,3 hPa 0,0 l/m 0 min 0 min 0 W/m 14,6 km/h (3 Bft)
06.07.2015 03:22 16,5 C 15,0 C 88 % 0 lf 1019,4 hPa 0,0 l/m 0 min 0 min 0 W/m 10,5 km/h (2 Bft)
06.07.2015 03:24 16,4 C 15,0 C 88 % 0 lf 1019,4 hPa 0,0 l/m 0 min 0 min 0 W/m 12,6 km/h (3 Bft)
06.07.2015 03:26 16,4 C 15,0 C 88 % 0 lf 1019,5 hPa 0,0 l/m 0 min 0 min 0 W/m 10,5 km/h (2 Bft)
06.07.2015 03:28 16,4 C 15,0 C 88 % 0 lf 1019,7 hPa 0,0 l/m 0 min 0 min 0 W/m 10,5 km/h (2 Bft)
06.07.2015 03:30 16,4 C 15,0 C 88 % 0 lf 1019,6 hPa 0,0 l/m 0 min 0 min 0 W/m 10,5 km/h (2 Bft)
06.07.2015 03:32 16,3 C 15,0 C 87 % 0 lf 1019,7 hPa 0,0 l/m 0 min 0 min 0 W/m 10,5 km/h (2 Bft)
06.07.2015 03:34 16,3 C 15,0 C 87 % 0 lf 1019,6 hPa 0,0 l/m 0 min 0 min 0 W/m 14,6 km/h (3 Bft)
06.07.2015 03:36 16,2 C 15,0 C 87 % 0 lf 1019,5 hPa 0,0 l/m 0 min 0 min 0 W/m 12,6 km/h (3 Bft)
06.07.2015 03:38 16,2 C 15,0 C 87 % 0 lf 1019,5 hPa 0,0 l/m 0 min 0 min 0 W/m 8,4 km/h (2 Bft)
06.07.2015 03:40 16,2 C 15,0 C 87 % 0 lf 1019,5 hPa 0,0 l/m 0 min 0 min 0 W/m 10,5 km/h (2 Bft)
06.07.2015 03:42 16,1 C 15,0 C 87 % 0 lf 1019,5 hPa 0,0 l/m 0 min 0 min 0 W/m 8,4 km/h (2 Bft)
06.07.2015 03:44 16,1 C 14,4 C 87 % 0 lf 1019,5 hPa 0,0 l/m 0 min 0 min 0 W/m 4,2 km/h (1 Bft)
06.07.2015 03:46 16,1 C 14,4 C 87 % 0 lf 1019,6 hPa 0,0 l/m 0 min 0 min 0 W/m 6,3 km/h (2 Bft)
06.07.2015 03:48 15,9 C 14,4 C 88 % 0 lf 1019,6 hPa 0,0 l/m 0 min 0 min 0 W/m 10,5 km/h (2 Bft)
06.07.2015 03:50 15,9 C 14,4 C 88 % 0 lf 1019,7 hPa 0,0 l/m 0 min 0 min 0 W/m 6,3 km/h (2 Bft)
06.07.2015 03:52 15,8 C 14,4 C 88 % 0 lf 1019,6 hPa 0,0 l/m 0 min 0 min 0 W/m 6,3 km/h (2 Bft)
06.07.2015 03:54 15,8 C 14,4 C 88 % 0 lf 1019,6 hPa 0,0 l/m 0 min 0 min 0 W/m 8,4 km/h (2 Bft)
06.07.2015 03:56 15,7 C 14,4 C 88 % 0 lf 1019,8 hPa 0,0 l/m 0 min 0 min 0 W/m 10,5 km/h (2 Bft)
06.07.2015 03:58 15,7 C 14,4 C 88 % 0 lf 1019,8 hPa 0,0 l/m 0 min 0 min 0 W/m 10,5 km/h (2 Bft)
06.07.2015 04:00 15,7 C 14,4 C 88 % 0 lf 1019,9 hPa 0,0 l/m 0 min 0 min 0 W/m 6,3 km/h (2 Bft)
06.07.2015 04:02 15,7 C 14,4 C 88 % 0 lf 1019,9 hPa 0,0 l/m 0 min 0 min 0 W/m 8,4 km/h (2 Bft)
06.07.2015 04:07 15,6 C 14,4 C 88 % 0 lf 1019,9 hPa 0,0 l/m 0 min 0 min 0 W/m 10,5 km/h (2 Bft)
06.07.2015 04:08 15,6 C 13,9 C 88 % 0 lf 1019,9 hPa 0,0 l/m 0 min 0 min 0 W/m 10,5 km/h (2 Bft)
06.07.2015 04:10 15,6 C 14,4 C 88 % 0 lf 1019,8 hPa 0,0 l/m 0 min 0 min 0 W/m 10,5 km/h (2 Bft)
06.07.2015 04:12 15,5 C 14,4 C 88 % 0 lf 1019,9 hPa 0,0 l/m 0 min 0 min 0 W/m 10,5 km/h (2 Bft)
06.07.2015 04:14 15,5 C 14,4 C 88 % 0 lf 1019,9 hPa 0,0 l/m 0 min 0 min 0 W/m 8,4 km/h (2 Bft)
06.07.2015 04:16 15,4 C 14,4 C 88 % 0 lf 1019,9 hPa 0,0 l/m 0 min 0 min 0 W/m 14,6 km/h (3 Bft)
06.07.2015 04:18 15,4 C 14,4 C 89 % 0 lf 1020,0 hPa 0,0 l/m 0 min 0 min 0 W/m 8,4 km/h (2 Bft)
06.07.2015 04:20 15,4 C 14,4 C 89 % 0 lf 1020,1 hPa 0,0 l/m 0 min 0 min 0 W/m 10,5 km/h (2 Bft)
06.07.2015 04:22 15,4 C 14,4 C 89 % 0 lf 1020,3 hPa 0,0 l/m 0 min 0 min 0 W/m 14,6 km/h (3 Bft)
06.07.2015 04:24 15,4 C 14,4 C 89 % 0 lf 1020,2 hPa 0,0 l/m 0 min 0 min 0 W/m 10,5 km/h (2 Bft)
06.07.2015 04:26 15,4 C 14,4 C 89 % 0 lf 1020,2 hPa 0,0 l/m 0 min 0 min 0 W/m 12,6 km/h (3 Bft)
06.07.2015 04:28 15,3 C 14,4 C 89 % 0 lf 1020,2 hPa 0,0 l/m 0 min 0 min 0 W/m 16,7 km/h (3 Bft)
06.07.2015 04:30 15,3 C 14,4 C 88 % 0 lf 1020,2 hPa 0,0 l/m 0 min 0 min 0 W/m 14,6 km/h (3 Bft)
06.07.2015 04:32 15,3 C 14,4 C 88 % 0 lf 1020,3 hPa 0,0 l/m 0 min 0 min 0 W/m 8,4 km/h (2 Bft)
06.07.2015 04:34 15,3 C 14,4 C 88 % 0 lf 1020,2 hPa 0,0 l/m 0 min 0 min 0 W/m 10,5 km/h (2 Bft)
06.07.2015 04:36 15,3 C 14,4 C 88 % 0 lf 1020,2 hPa 0,0 l/m 0 min 0 min 0 W/m 14,6 km/h (3 Bft)
06.07.2015 04:38 15,3 C 14,4 C 88 % 0 lf 1020,3 hPa 0,0 l/m 0 min 0 min 0 W/m 10,5 km/h (2 Bft)
06.07.2015 04:40 15,2 C 13,9 C 88 % 0 lf 1020,3 hPa 0,0 l/m 0 min 0 min 0 W/m 12,6 km/h (3 Bft)
06.07.2015 04:42 15,2 C 13,9 C 88 % 0 lf 1020,3 hPa 0,0 l/m 0 min 0 min 0 W/m 10,5 km/h (2 Bft)
06.07.2015 04:44 15,2 C 13,9 C 88 % 0 lf 1020,3 hPa 0,0 l/m 0 min 0 min 0 W/m 10,5 km/h (2 Bft)
06.07.2015 04:46 15,2 C 13,9 C 88 % 0 lf 1020,3 hPa 0,0 l/m 0 min 0 min 0 W/m 12,6 km/h (3 Bft)
06.07.2015 04:48 15,2 C 13,9 C 88 % 0 lf 1020,4 hPa 0,0 l/m 0 min 0 min 0 W/m 12,6 km/h (3 Bft)
06.07.2015 04:50 15,1 C 13,9 C 88 % 0 lf 1020,5 hPa 0,0 l/m 0 min 0 min 0 W/m 10,5 km/h (2 Bft)
06.07.2015 04:52 15,1 C 13,9 C 88 % 0 lf 1020,5 hPa 0,0 l/m 0 min 0 min 0 W/m 14,6 km/h (3 Bft)
06.07.2015 04:54 15,1 C 13,9 C 88 % 0 lf 1020,5 hPa 0,0 l/m 0 min 0 min 0 W/m 16,7 km/h (3 Bft)
06.07.2015 04:56 15,1 C 13,9 C 88 % 0 lf 1020,4 hPa 0,0 l/m 0 min 0 min 0 W/m 10,5 km/h (2 Bft)
06.07.2015 04:58 15,1 C 13,9 C 88 % 0 lf 1020,5 hPa 0,0 l/m 0 min 0 min 0 W/m 8,4 km/h (2 Bft)
06.07.2015 05:00 15,0 C 13,9 C 88 % 0 lf 1020,4 hPa 0,0 l/m 0 min 0 min 0 W/m 8,4 km/h (2 Bft)
06.07.2015 05:02 15,0 C 13,9 C 88 % 0 lf 1020,4 hPa 0,0 l/m 0 min 0 min 0 W/m 10,5 km/h (2 Bft)
06.07.2015 05:04 14,9 C 13,9 C 88 % 0 lf 1020,4 hPa 0,0 l/m 0 min 0 min 0 W/m 12,6 km/h (3 Bft)
06.07.2015 05:06 14,9 C 13,9 C 88 % 0 lf 1020,4 hPa 0,0 l/m 0 min 0 min 0 W/m 8,4 km/h (2 Bft)
06.07.2015 05:08 14,9 C 13,9 C 88 % 0 lf 1020,4 hPa 0,0 l/m 0 min 0 min 0 W/m 14,6 km/h (3 Bft)
06.07.2015 05:10 14,9 C 13,9 C 88 % 0 lf 1020,4 hPa 0,0 l/m 0 min 0 min 0 W/m 12,6 km/h (3 Bft)
06.07.2015 05:12 14,8 C 13,9 C 88 % 0 lf 1020,4 hPa 0,0 l/m 0 min 0 min 0 W/m 12,6 km/h (3 Bft)
06.07.2015 05:14 14,8 C 13,9 C 88 % 0 lf 1020,3 hPa 0,0 l/m 0 min 0 min 0 W/m 6,3 km/h (2 Bft)
06.07.2015 05:16 14,8 C 13,9 C 88 % 0 lf 1020,3 hPa 0,0 l/m 0 min 0 min 0 W/m 8,4 km/h (2 Bft)
06.07.2015 05:18 14,7 C 13,9 C 88 % 0 lf 1020,3 hPa 0,0 l/m 0 min 0 min 0 W/m 10,5 km/h (2 Bft)
06.07.2015 05:20 14,7 C 13,9 C 89 % 0 lf 1020,3 hPa 0,0 l/m 0 min 0 min 3 W/m 8,4 km/h (2 Bft)
06.07.2015 05:22 14,7 C 13,9 C 89 % 0 lf 1020,3 hPa 0,0 l/m 0 min 0 min 5 W/m 14,6 km/h (3 Bft)
06.07.2015 05:24 14,7 C 13,9 C 89 % 0 lf 1020,4 hPa 0,0 l/m 0 min 0 min 5 W/m 8,4 km/h (2 Bft)
06.07.2015 05:26 14,7 C 13,9 C 89 % 0 lf 1020,3 hPa 0,0 l/m 0 min 0 min 5 W/m 10,5 km/h (2 Bft)
06.07.2015 05:28 14,7 C 13,3 C 89 % 0 lf 1020,3 hPa 0,0 l/m 0 min 0 min 7 W/m 8,4 km/h (2 Bft)
06.07.2015 05:30 14,6 C 13,3 C 89 % 0 lf 1020,3 hPa 0,0 l/m 0 min 0 min 7 W/m 10,5 km/h (2 Bft)
06.07.2015 05:32 14,6 C 13,9 C 89 % 0 lf 1020,4 hPa 0,0 l/m 0 min 0 min 8 W/m 10,5 km/h (2 Bft)
06.07.2015 05:34 14,6 C 13,9 C 89 % 0 lf 1020,3 hPa 0,0 l/m 0 min 0 min 9 W/m 10,5 km/h (2 Bft)
06.07.2015 05:36 14,6 C 13,9 C 89 % 0 lf 1020,4 hPa 0,0 l/m 0 min 0 min 9 W/m 10,5 km/h (2 Bft)
06.07.2015 05:38 14,6 C 13,9 C 89 % 0 lf 1020,4 hPa 0,0 l/m 0 min 0 min 11 W/m 12,6 km/h (3 Bft)
06.07.2015 05:40 14,5 C 13,3 C 89 % 0 lf 1020,4 hPa 0,0 l/m 0 min 0 min 11 W/m 10,5 km/h (2 Bft)
06.07.2015 05:42 14,5 C 13,9 C 89 % 0 lf 1020,4 hPa 0,0 l/m 0 min 0 min 12 W/m 12,6 km/h (3 Bft)
06.07.2015 05:44 14,5 C 13,9 C 89 % 0 lf 1020,4 hPa 0,0 l/m 0 min 0 min 13 W/m 14,6 km/h (3 Bft)
06.07.2015 05:46 14,5 C 13,9 C 90 % 0 lf 1020,5 hPa 0,0 l/m 0 min 0 min 15 W/m 14,6 km/h (3 Bft)
06.07.2015 05:49 14,5 C 13,9 C 90 % 0 lf 1020,5 hPa 0,0 l/m 0 min 0 min 17 W/m 12,6 km/h (3 Bft)
06.07.2015 05:50 14,5 C 13,3 C 90 % 0 lf 1020,5 hPa 0,0 l/m 1 min 0 min 19 W/m 14,6 km/h (3 Bft)
06.07.2015 05:51 14,5 C 13,9 C 90 % 0 lf 1020,5 hPa 0,0 l/m 0 min 0 min 19 W/m 12,6 km/h (3 Bft)
06.07.2015 05:54 14,5 C 13,9 C 90 % 0 lf 1020,5 hPa 0,0 l/m 0 min 0 min 22 W/m 14,6 km/h (3 Bft)
06.07.2015 05:56 14,5 C 13,9 C 90 % 0 lf 1020,5 hPa 0,0 l/m 0 min 0 min 24 W/m 14,6 km/h (3 Bft)
06.07.2015 05:58 14,5 C 13,9 C 90 % 0 lf 1020,5 hPa 0,0 l/m 0 min 0 min 25 W/m 12,6 km/h (3 Bft)
06.07.2015 06:00 14,5 C 13,9 C 90 % 0 lf 1020,5 hPa 0,0 l/m 0 min 0 min 27 W/m 14,6 km/h (3 Bft)
06.07.2015 06:03 14,5 C 13,9 C 90 % 0 lf 1020,5 hPa 0,0 l/m 2 min 0 min 33 W/m 16,7 km/h (3 Bft)
06.07.2015 06:04 14,5 C 13,9 C 90 % 0 lf 1020,5 hPa 0,0 l/m 0 min 0 min 31 W/m 16,7 km/h (3 Bft)
06.07.2015 06:06 14,4 C 13,9 C 90 % 0 lf 1020,6 hPa 0,0 l/m 0 min 0 min 35 W/m 16,7 km/h (3 Bft)
06.07.2015 06:08 14,5 C 13,9 C 90 % 0 lf 1020,6 hPa 0,0 l/m 2 min 0 min 39 W/m 14,6 km/h (3 Bft)
06.07.2015 06:10 14,5 C 13,9 C 90 % 0 lf 1020,6 hPa 0,0 l/m 2 min 0 min 41 W/m 16,7 km/h (3 Bft)
06.07.2015 06:12 14,5 C 13,9 C 90 % 0 lf 1020,6 hPa 0,0 l/m 2 min 0 min 45 W/m 23,0 km/h (4 Bft)
06.07.2015 06:14 14,5 C 13,9 C 90 % 0 lf 1020,6 hPa 0,0 l/m 2 min 0 min 49 W/m 16,7 km/h (3 Bft)
06.07.2015 06:16 14,5 C 13,9 C 90 % 0 lf 1020,6 hPa 0,0 l/m 2 min 0 min 54 W/m 20,9 km/h (4 Bft)
06.07.2015 06:18 14,5 C 13,9 C 90 % 0 lf 1020,7 hPa 0,0 l/m 2 min 0 min 58 W/m 16,7 km/h (3 Bft)
06.07.2015 06:20 14,5 C 13,9 C 91 % 0 lf 1020,7 hPa 0,0 l/m 2 min 0 min 62 W/m 14,6 km/h (3 Bft)
06.07.2015 06:22 14,5 C 13,9 C 91 % 0 lf 1020,7 hPa 0,0 l/m 2 min 0 min 66 W/m 20,9 km/h (4 Bft)
06.07.2015 06:24 14,5 C 13,9 C 91 % 0 lf 1020,7 hPa 0,0 l/m 2 min 0 min 70 W/m 14,6 km/h (3 Bft)
06.07.2015 06:26 14,5 C 13,9 C 91 % 0 lf 1020,7 hPa 0,0 l/m 2 min 0 min 74 W/m 16,7 km/h (3 Bft)
06.07.2015 06:28 14,5 C 13,9 C 91 % 0 lf 1020,8 hPa 0,0 l/m 2 min 0 min 78 W/m 14,6 km/h (3 Bft)
06.07.2015 06:30 14,5 C 13,9 C 91 % 0 lf 1020,7 hPa 0,0 l/m 2 min 0 min 83 W/m 14,6 km/h (3 Bft)
06.07.2015 06:32 14,5 C 13,9 C 91 % 0 lf 1020,7 hPa 0,0 l/m 2 min 0 min 88 W/m 14,6 km/h (3 Bft)
06.07.2015 06:34 14,5 C 13,9 C 91 % 0 lf 1020,7 hPa 0,0 l/m 2 min 0 min 92 W/m 18,8 km/h (3 Bft)
06.07.2015 06:36 14,5 C 13,9 C 91 % 0 lf 1020,7 hPa 0,0 l/m 2 min 0 min 97 W/m 20,9 km/h (4 Bft)
06.07.2015 06:38 14,5 C 13,9 C 90 % 0 lf 1020,7 hPa 0,0 l/m 2 min 0 min 101 W/m 14,6 km/h (3 Bft)
06.07.2015 06:40 14,6 C 13,9 C 90 % 0 lf 1020,8 hPa 0,0 l/m 2 min 0 min 106 W/m 18,8 km/h (3 Bft)
06.07.2015 06:42 14,6 C 13,9 C 90 % 0 lf 1020,7 hPa 0,0 l/m 2 min 0 min 111 W/m 23,0 km/h (4 Bft)
06.07.2015 06:44 14,6 C 13,9 C 90 % 0 lf 1020,8 hPa 0,0 l/m 2 min 0 min 116 W/m 20,9 km/h (4 Bft)
06.07.2015 06:46 14,6 C 13,9 C 90 % 0 lf 1020,8 hPa 0,0 l/m 2 min 0 min 121 W/m 14,6 km/h (3 Bft)
06.07.2015 06:48 14,6 C 13,9 C 90 % 0 lf 1020,8 hPa 0,0 l/m 2 min 0 min 128 W/m 16,7 km/h (3 Bft)
06.07.2015 06:50 14,7 C 13,9 C 90 % 0 lf 1020,8 hPa 0,0 l/m 2 min 0 min 133 W/m 14,6 km/h (3 Bft)
06.07.2015 06:52 14,7 C 13,9 C 90 % 0 lf 1020,8 hPa 0,0 l/m 2 min 0 min 138 W/m 20,9 km/h (4 Bft)
06.07.2015 06:54 14,7 C 13,9 C 90 % 0 lf 1020,8 hPa 0,0 l/m 2 min 0 min 145 W/m 16,7 km/h (3 Bft)
06.07.2015 06:56 14,7 C 13,9 C 90 % 0 lf 1020,8 hPa 0,0 l/m 2 min 0 min 151 W/m 23,0 km/h (4 Bft)
06.07.2015 06:58 14,7 C 13,9 C 89 % 0 lf 1020,7 hPa 0,0 l/m 2 min 0 min 157 W/m 23,0 km/h (4 Bft)
06.07.2015 07:00 14,8 C 13,9 C 89 % 0 lf 1020,7 hPa 0,0 l/m 2 min 0 min 162 W/m 16,7 km/h (3 Bft)
06.07.2015 07:02 14,8 C 13,9 C 89 % 0 lf 1020,7 hPa 0,0 l/m 2 min 0 min 170 W/m 29,3 km/h (5 Bft)
06.07.2015 07:04 14,8 C 13,9 C 89 % 0 lf 1020,8 hPa 0,0 l/m 2 min 0 min 176 W/m 16,7 km/h (3 Bft)
06.07.2015 07:06 14,9 C 13,9 C 89 % 0 lf 1020,8 hPa 0,0 l/m 2 min 0 min 181 W/m 14,6 km/h (3 Bft)
06.07.2015 07:08 14,9 C 13,9 C 89 % 0 lf 1020,7 hPa 0,0 l/m 2 min 0 min 186 W/m 18,8 km/h (3 Bft)
06.07.2015 07:10 14,9 C 13,9 C 89 % 0 lf 1020,7 hPa 0,0 l/m 2 min 0 min 192 W/m 18,8 km/h (3 Bft)
06.07.2015 07:12 15,0 C 13,9 C 89 % 0 lf 1020,8 hPa 0,0 l/m 2 min 0 min 197 W/m 16,7 km/h (3 Bft)
06.07.2015 07:14 15,0 C 13,9 C 89 % 0 lf 1020,7 hPa 0,0 l/m 2 min 0 min 203 W/m 18,8 km/h (3 Bft)
06.07.2015 07:16 15,0 C 13,9 C 88 % 0 lf 1020,8 hPa 0,0 l/m 2 min 0 min 207 W/m 18,8 km/h (3 Bft)
06.07.2015 07:18 15,1 C 13,9 C 88 % 0 lf 1020,7 hPa 0,0 l/m 2 min 0 min 211 W/m 14,6 km/h (3 Bft)
06.07.2015 07:20 15,1 C 14,4 C 88 % 0 lf 1020,8 hPa 0,0 l/m 2 min 0 min 217 W/m 18,8 km/h (3 Bft)
06.07.2015 07:22 15,1 C 14,4 C 88 % 0 lf 1020,8 hPa 0,0 l/m 2 min 0 min 224 W/m 20,9 km/h (4 Bft)
06.07.2015 07:24 15,1 C 14,4 C 88 % 0 lf 1020,8 hPa 0,0 l/m 2 min 0 min 229 W/m 18,8 km/h (3 Bft)
06.07.2015 07:26 15,2 C 14,4 C 88 % 0 lf 1020,8 hPa 0,0 l/m 2 min 0 min 234 W/m 20,9 km/h (4 Bft)
06.07.2015 07:28 15,2 C 14,4 C 88 % 0 lf 1020,8 hPa 0,0 l/m 2 min 0 min 240 W/m 16,7 km/h (3 Bft)
06.07.2015 07:30 15,2 C 14,4 C 87 % 0 lf 1020,8 hPa 0,0 l/m 2 min 0 min 244 W/m 23,0 km/h (4 Bft)
06.07.2015 07:32 15,2 C 14,4 C 87 % 0 lf 1020,9 hPa 0,0 l/m 2 min 0 min 250 W/m 25,1 km/h (4 Bft)
06.07.2015 07:34 15,2 C 14,4 C 87 % 0 lf 1020,9 hPa 0,0 l/m 2 min 0 min 256 W/m 14,6 km/h (3 Bft)
06.07.2015 07:36 15,3 C 14,4 C 87 % 0 lf 1020,9 hPa 0,0 l/m 2 min 0 min 261 W/m 20,9 km/h (4 Bft)
06.07.2015 07:38 15,3 C 14,4 C 87 % 0 lf 1021,0 hPa 0,0 l/m 2 min 0 min 267 W/m 23,0 km/h (4 Bft)
06.07.2015 07:40 15,3 C 14,4 C 87 % 0 lf 1021,0 hPa 0,0 l/m 2 min 0 min 269 W/m 18,8 km/h (3 Bft)
06.07.2015 07:42 15,3 C 14,4 C 86 % 0 lf 1021,0 hPa 0,0 l/m 2 min 0 min 276 W/m 18,8 km/h (3 Bft)
06.07.2015 07:44 15,4 C 14,4 C 86 % 0 lf 1021,0 hPa 0,0 l/m 2 min 0 min 281 W/m 20,9 km/h (4 Bft)
06.07.2015 07:46 15,4 C 14,4 C 86 % 0 lf 1021,0 hPa 0,0 l/m 2 min 0 min 286 W/m 16,7 km/h (3 Bft)
06.07.2015 07:48 15,4 C 14,4 C 86 % 0 lf 1021,0 hPa 0,0 l/m 2 min 0 min 291 W/m 16,7 km/h (3 Bft)
06.07.2015 07:50 15,4 C 14,4 C 86 % 0 lf 1021,0 hPa 0,0 l/m 2 min 0 min 296 W/m 20,9 km/h (4 Bft)
06.07.2015 07:52 15,5 C 14,4 C 86 % 0 lf 1021,1 hPa 0,0 l/m 2 min 0 min 302 W/m 16,7 km/h (3 Bft)
06.07.2015 07:54 15,5 C 14,4 C 86 % 0 lf 1021,1 hPa 0,0 l/m 2 min 0 min 307 W/m 14,6 km/h (3 Bft)
06.07.2015 07:56 15,6 C 14,4 C 86 % 0 lf 1021,0 hPa 0,0 l/m 2 min 0 min 310 W/m 12,6 km/h (3 Bft)
06.07.2015 07:58 15,6 C 14,4 C 86 % 0 lf 1021,1 hPa 0,0 l/m 2 min 0 min 314 W/m 12,6 km/h (3 Bft)
06.07.2015 08:00 15,7 C 14,4 C 86 % 0 lf 1021,1 hPa 0,0 l/m 2 min 0 min 323 W/m 12,6 km/h (3 Bft)
06.07.2015 08:02 15,7 C 14,4 C 86 % 0 lf 1021,1 hPa 0,0 l/m 2 min 0 min 331 W/m 18,8 km/h (3 Bft)
06.07.2015 08:04 15,8 C 15,0 C 86 % 0 lf 1021,2 hPa 0,0 l/m 2 min 0 min 335 W/m 10,5 km/h (2 Bft)
06.07.2015 08:06 15,8 C 15,0 C 86 % 0 lf 1021,3 hPa 0,0 l/m 2 min 0 min 340 W/m 20,9 km/h (4 Bft)
06.07.2015 08:08 15,8 C 15,0 C 86 % 0 lf 1021,2 hPa 0,0 l/m 2 min 0 min 347 W/m 16,7 km/h (3 Bft)
06.07.2015 08:10 15,8 C 15,0 C 86 % 0 lf 1021,3 hPa 0,0 l/m 2 min 0 min 354 W/m 16,7 km/h (3 Bft)
06.07.2015 08:12 15,9 C 15,0 C 86 % 0 lf 1021,3 hPa 0,0 l/m 2 min 0 min 356 W/m 10,5 km/h (2 Bft)
06.07.2015 08:14 15,9 C 15,0 C 86 % 0 lf 1021,3 hPa 0,0 l/m 2 min 0 min 363 W/m 18,8 km/h (3 Bft)
06.07.2015 08:16 16,0 C 15,0 C 85 % 0 lf 1021,3 hPa 0,0 l/m 2 min 0 min 367 W/m 16,7 km/h (3 Bft)
06.07.2015 08:18 16,1 C 15,0 C 85 % 0 lf 1021,3 hPa 0,0 l/m 2 min 0 min 375 W/m 20,9 km/h (4 Bft)
06.07.2015 08:20 16,2 C 15,0 C 85 % 0 lf 1021,3 hPa 0,0 l/m 2 min 0 min 381 W/m 18,8 km/h (3 Bft)
06.07.2015 08:22 16,2 C 15,0 C 85 % 0 lf 1021,3 hPa 0,0 l/m 2 min 0 min 386 W/m 12,6 km/h (3 Bft)
06.07.2015 08:24 16,3 C 15,0 C 85 % 0 lf 1021,3 hPa 0,0 l/m 2 min 0 min 390 W/m 16,7 km/h (3 Bft)
06.07.2015 08:26 16,3 C 15,0 C 85 % 0 lf 1021,3 hPa 0,0 l/m 2 min 0 min 395 W/m 14,6 km/h (3 Bft)
06.07.2015 08:28 16,4 C 15,0 C 84 % 0 lf 1021,3 hPa 0,0 l/m 2 min 0 min 401 W/m 16,7 km/h (3 Bft)
06.07.2015 08:30 16,4 C 15,6 C 84 % 0 lf 1021,3 hPa 0,0 l/m 2 min 0 min 408 W/m 18,8 km/h (3 Bft)
06.07.2015 08:32 16,5 C 15,6 C 84 % 0 lf 1021,3 hPa 0,0 l/m 2 min 0 min 409 W/m 16,7 km/h (3 Bft)
06.07.2015 08:34 16,7 C 15,6 C 84 % 0 lf 1021,3 hPa 0,0 l/m 2 min 0 min 414 W/m 16,7 km/h (3 Bft)
06.07.2015 08:36 16,7 C 15,6 C 84 % 0 lf 1021,2 hPa 0,0 l/m 2 min 0 min 420 W/m 14,6 km/h (3 Bft)
06.07.2015 08:38 16,8 C 15,6 C 84 % 0 lf 1021,3 hPa 0,0 l/m 2 min 0 min 428 W/m 18,8 km/h (3 Bft)
06.07.2015 08:40 16,9 C 15,6 C 83 % 0 lf 1021,3 hPa 0,0 l/m 2 min 0 min 432 W/m 14,6 km/h (3 Bft)
06.07.2015 08:42 17,0 C 15,6 C 83 % 0 lf 1021,4 hPa 0,0 l/m 2 min 0 min 438 W/m 18,8 km/h (3 Bft)
06.07.2015 08:44 17,0 C 15,6 C 83 % 0 lf 1021,3 hPa 0,0 l/m 2 min 0 min 445 W/m 18,8 km/h (3 Bft)
06.07.2015 08:46 17,1 C 15,6 C 83 % 0 lf 1021,3 hPa 0,0 l/m 2 min 0 min 449 W/m 20,9 km/h (4 Bft)
06.07.2015 08:48 17,2 C 16,1 C 82 % 0 lf 1021,4 hPa 0,0 l/m 2 min 0 min 453 W/m 16,7 km/h (3 Bft)
06.07.2015 08:50 17,3 C 16,1 C 82 % 0 lf 1021,3 hPa 0,0 l/m 2 min 0 min 460 W/m 16,7 km/h (3 Bft)
06.07.2015 08:52 17,4 C 16,1 C 81 % 0 lf 1021,3 hPa 0,0 l/m 2 min 0 min 470 W/m 14,6 km/h (3 Bft)
06.07.2015 08:54 17,5 C 16,1 C 81 % 0 lf 1021,3 hPa 0,0 l/m 2 min 0 min 475 W/m 14,6 km/h (3 Bft)
06.07.2015 08:56 17,7 C 16,1 C 82 % 0 lf 1021,3 hPa 0,0 l/m 2 min 0 min 475 W/m 10,5 km/h (2 Bft)
06.07.2015 08:58 17,8 C 16,1 C 81 % 0 lf 1021,3 hPa 0,0 l/m 2 min 0 min 471 W/m 16,7 km/h (3 Bft)
06.07.2015 09:00 17,9 C 16,1 C 80 % 0 lf 1021,4 hPa 0,0 l/m 2 min 0 min 475 W/m 12,6 km/h (3 Bft)
06.07.2015 09:02 17,9 C 16,7 C 80 % 0 lf 1021,4 hPa 0,0 l/m 2 min 0 min 479 W/m 14,6 km/h (3 Bft)
06.07.2015 09:04 17,9 C 16,7 C 80 % 0 lf 1021,3 hPa 0,0 l/m 2 min 0 min 484 W/m 14,6 km/h (3 Bft)
06.07.2015 09:06 17,9 C 16,7 C 80 % 0 lf 1021,5 hPa 0,0 l/m 2 min 0 min 486 W/m 12,6 km/h (3 Bft)
06.07.2015 09:08 18,1 C 16,7 C 80 % 0 lf 1021,5 hPa 0,0 l/m 2 min 0 min 492 W/m 10,5 km/h (2 Bft)
06.07.2015 09:10 18,1 C 16,7 C 80 % 0 lf 1021,6 hPa 0,0 l/m 2 min 0 min 495 W/m 14,6 km/h (3 Bft)
06.07.2015 09:12 18,2 C 16,7 C 80 % 0 lf 1021,6 hPa 0,0 l/m 2 min 0 min 499 W/m 10,5 km/h (2 Bft)
06.07.2015 09:14 18,3 C 16,7 C 80 % 0 lf 1021,6 hPa 0,0 l/m 2 min 0 min 500 W/m 16,7 km/h (3 Bft)
06.07.2015 09:16 18,4 C 16,7 C 79 % 0 lf 1021,6 hPa 0,0 l/m 2 min 0 min 512 W/m 12,6 km/h (3 Bft)
06.07.2015 09:18 18,5 C 16,7 C 79 % 0 lf 1021,6 hPa 0,0 l/m 2 min 0 min 519 W/m 14,6 km/h (3 Bft)
06.07.2015 09:20 18,6 C 16,7 C 78 % 0 lf 1021,6 hPa 0,0 l/m 2 min 0 min 524 W/m 16,7 km/h (3 Bft)
06.07.2015 09:22 18,6 C 17,2 C 78 % 0 lf 1021,6 hPa 0,0 l/m 2 min 0 min 527 W/m 6,3 km/h (2 Bft)
06.07.2015 09:24 18,6 C 17,2 C 78 % 0 lf 1021,6 hPa 0,0 l/m 2 min 0 min 528 W/m 8,4 km/h (2 Bft)
06.07.2015 09:26 18,7 C 17,2 C 78 % 0 lf 1021,7 hPa 0,0 l/m 2 min 0 min 539 W/m 10,5 km/h (2 Bft)
06.07.2015 09:28 18,8 C 17,2 C 78 % 0 lf 1021,7 hPa 0,0 l/m 2 min 0 min 545 W/m 8,4 km/h (2 Bft)
06.07.2015 09:30 18,9 C 17,2 C 78 % 0 lf 1021,7 hPa 0,0 l/m 2 min 0 min 545 W/m 10,5 km/h (2 Bft)
06.07.2015 09:32 19,1 C 17,2 C 77 % 0 lf 1021,7 hPa 0,0 l/m 2 min 0 min 551 W/m 10,5 km/h (2 Bft)
06.07.2015 09:34 19,2 C 17,8 C 78 % 0 lf 1021,6 hPa 0,0 l/m 2 min 0 min 554 W/m 6,3 km/h (2 Bft)
06.07.2015 09:36 19,4 C 17,8 C 77 % 0 lf 1021,6 hPa 0,0 l/m 2 min 0 min 556 W/m 8,4 km/h (2 Bft)
06.07.2015 09:38 19,4 C 17,8 C 76 % 0 lf 1021,7 hPa 0,0 l/m 2 min 0 min 553 W/m 12,6 km/h (3 Bft)
06.07.2015 09:40 19,4 C 17,8 C 76 % 0 lf 1021,7 hPa 0,0 l/m 2 min 0 min 553 W/m 12,6 km/h (3 Bft)
06.07.2015 09:42 19,4 C 17,8 C 75 % 0 lf 1021,7 hPa 0,0 l/m 2 min 0 min 559 W/m 8,4 km/h (2 Bft)
06.07.2015 09:44 19,4 C 18,3 C 76 % 0 lf 1021,7 hPa 0,0 l/m 2 min 0 min 576 W/m 12,6 km/h (3 Bft)
06.07.2015 09:46 19,6 C 18,3 C 77 % 0 lf 1021,7 hPa 0,0 l/m 2 min 0 min 583 W/m 12,6 km/h (3 Bft)
06.07.2015 09:48 19,9 C 18,3 C 76 % 0 lf 1021,7 hPa 0,0 l/m 2 min 0 min 586 W/m 14,6 km/h (3 Bft)
06.07.2015 09:50 20,1 C 18,9 C 76 % 0 lf 1021,7 hPa 0,0 l/m 2 min 0 min 599 W/m 18,8 km/h (3 Bft)
06.07.2015 09:52 20,2 C 18,9 C 75 % 0 lf 1021,7 hPa 0,0 l/m 2 min 0 min 609 W/m 14,6 km/h (3 Bft)
06.07.2015 09:54 20,1 C 18,9 C 73 % 0 lf 1021,7 hPa 0,0 l/m 2 min 0 min 613 W/m 16,7 km/h (3 Bft)
06.07.2015 09:56 20,1 C 18,9 C 73 % 0 lf 1021,7 hPa 0,0 l/m 2 min 0 min 619 W/m 14,6 km/h (3 Bft)
06.07.2015 09:58 19,9 C 18,9 C 73 % 0 lf 1021,7 hPa 0,0 l/m 2 min 0 min 616 W/m 20,9 km/h (4 Bft)
06.07.2015 10:00 20,0 C 19,4 C 75 % 0 lf 1021,7 hPa 0,0 l/m 2 min 0 min 614 W/m 10,5 km/h (2 Bft)
06.07.2015 10:02 20,2 C 21,1 C 75 % 0 lf 1021,6 hPa 0,0 l/m 2 min 0 min 620 W/m 12,6 km/h (3 Bft)
06.07.2015 10:04 20,2 C 22,2 C 74 % 0 lf 1021,7 hPa 0,0 l/m 2 min 0 min 633 W/m 16,7 km/h (3 Bft)
06.07.2015 10:06 20,2 C 23,3 C 73 % 0 lf 1021,7 hPa 0,0 l/m 2 min 0 min 641 W/m 14,6 km/h (3 Bft)
06.07.2015 10:08 20,2 C 23,9 C 73 % 0 lf 1021,7 hPa 0,0 l/m 2 min 0 min 623 W/m 12,6 km/h (3 Bft)
06.07.2015 10:10 20,2 C 24,4 C 73 % 0 lf 1021,7 hPa 0,0 l/m 2 min 0 min 660 W/m 14,6 km/h (3 Bft)
06.07.2015 10:12 20,2 C 25,0 C 73 % 0 lf 1021,7 hPa 0,0 l/m 2 min 0 min 660 W/m 16,7 km/h (3 Bft)
06.07.2015 10:14 20,3 C 24,4 C 73 % 0 lf 1021,6 hPa 0,0 l/m 2 min 0 min 656 W/m 14,6 km/h (3 Bft)
06.07.2015 10:16 20,3 C 24,4 C 72 % 0 lf 1021,7 hPa 0,0 l/m 2 min 0 min 661 W/m 16,7 km/h (3 Bft)
06.07.2015 10:18 20,4 C 25,0 C 72 % 0 lf 1021,6 hPa 0,0 l/m 2 min 0 min 673 W/m 20,9 km/h (4 Bft)
06.07.2015 10:20 20,5 C 25,0 C 72 % 0 lf 1021,6 hPa 0,0 l/m 2 min 0 min 680 W/m 16,7 km/h (3 Bft)
06.07.2015 10:22 20,6 C 25,6 C 72 % 0 lf 1021,6 hPa 0,0 l/m 2 min 0 min 674 W/m 12,6 km/h (3 Bft)
06.07.2015 10:24 20,6 C 25,6 C 72 % 0 lf 1021,6 hPa 0,0 l/m 2 min 0 min 684 W/m 16,7 km/h (3 Bft)
06.07.2015 10:26 20,7 C 25,6 C 71 % 0 lf 1021,6 hPa 0,0 l/m 2 min 0 min 688 W/m 14,6 km/h (3 Bft)
06.07.2015 10:28 20,8 C 25,0 C 71 % 0 lf 1021,6 hPa 0,0 l/m 2 min 0 min 689 W/m 14,6 km/h (3 Bft)
06.07.2015 10:30 20,8 C 24,4 C 71 % 0 lf 1021,6 hPa 0,0 l/m 2 min 0 min 700 W/m 16,7 km/h (3 Bft)
06.07.2015 10:32 20,8 C 25,0 C 70 % 0 lf 1021,6 hPa 0,0 l/m 2 min 0 min 709 W/m 10,5 km/h (2 Bft)
06.07.2015 10:34 21,1 C 25,0 C 72 % 0 lf 1021,6 hPa 0,0 l/m 2 min 0 min 719 W/m 8,4 km/h (2 Bft)
06.07.2015 10:36 21,1 C 25,0 C 70 % 0 lf 1021,6 hPa 0,0 l/m 2 min 0 min 724 W/m 12,6 km/h (3 Bft)
06.07.2015 10:38 21,1 C 24,4 C 69 % 0 lf 1021,6 hPa 0,0 l/m 2 min 0 min 729 W/m 14,6 km/h (3 Bft)
06.07.2015 10:40 21,0 C 24,4 C 71 % 0 lf 1021,6 hPa 0,0 l/m 2 min 0 min 477 W/m 10,5 km/h (2 Bft)
06.07.2015 10:42 21,1 C 24,4 C 70 % 0 lf 1021,6 hPa 0,0 l/m 2 min 0 min 725 W/m 12,6 km/h (3 Bft)
06.07.2015 10:44 21,2 C 24,4 C 70 % 0 lf 1021,6 hPa 0,0 l/m 2 min 0 min 745 W/m 12,6 km/h (3 Bft)
06.07.2015 10:46 21,3 C 23,3 C 67 % 0 lf 1021,6 hPa 0,0 l/m 2 min 0 min 749 W/m 14,6 km/h (3 Bft)
06.07.2015 10:48 21,2 C 22,8 C 66 % 0 lf 1021,6 hPa 0,0 l/m 2 min 0 min 749 W/m 14,6 km/h (3 Bft)
06.07.2015 10:50 21,1 C 22,8 C 67 % 0 lf 1021,6 hPa 0,0 l/m 2 min 0 min 751 W/m 10,5 km/h (2 Bft)
06.07.2015 10:52 21,2 C 23,3 C 70 % 0 lf 1021,6 hPa 0,0 l/m 2 min 0 min 755 W/m 25,1 km/h (4 Bft)
06.07.2015 10:54 21,3 C 22,8 C 66 % 0 lf 1021,6 hPa 0,0 l/m 2 min 0 min 756 W/m 23,0 km/h (4 Bft)
06.07.2015 10:56 21,3 C 23,3 C 65 % 0 lf 1021,6 hPa 0,0 l/m 2 min 0 min 774 W/m 16,7 km/h (3 Bft)
06.07.2015 10:58 21,3 C 23,3 C 64 % 0 lf 1021,5 hPa 0,0 l/m 2 min 0 min 780 W/m 16,7 km/h (3 Bft)
06.07.2015 11:00 21,3 C 23,3 C 63 % 0 lf 1021,5 hPa 0,0 l/m 2 min 0 min 767 W/m 12,6 km/h (3 Bft)
06.07.2015 11:02 21,3 C 23,9 C 64 % 0 lf 1021,6 hPa 0,0 l/m 2 min 0 min 776 W/m 14,6 km/h (3 Bft)
06.07.2015 11:04 21,4 C 24,4 C 66 % 0 lf 1021,6 hPa 0,0 l/m 2 min 0 min 784 W/m 14,6 km/h (3 Bft)
06.07.2015 11:06 21,4 C 25,6 C 64 % 0 lf 1021,6 hPa 0,0 l/m 2 min 0 min 780 W/m 14,6 km/h (3 Bft)
06.07.2015 11:08 21,6 C 26,1 C 64 % 0 lf 1021,6 hPa 0,0 l/m 2 min 0 min 784 W/m 10,5 km/h (2 Bft)
06.07.2015 11:10 21,8 C 26,1 C 65 % 0 lf 1021,5 hPa 0,0 l/m 2 min 0 min 799 W/m 23,0 km/h (4 Bft)
06.07.2015 11:12 21,9 C 26,1 C 62 % 0 lf 1021,5 hPa 0,0 l/m 2 min 0 min 795 W/m 14,6 km/h (3 Bft)
06.07.2015 11:14 21,9 C 25,6 C 61 % 0 lf 1021,5 hPa 0,0 l/m 2 min 0 min 794 W/m 18,8 km/h (3 Bft)
06.07.2015 11:16 21,9 C 26,1 C 61 % 0 lf 1021,5 hPa 0,0 l/m 2 min 0 min 787 W/m 16,7 km/h (3 Bft)
06.07.2015 11:18 22,1 C 26,1 C 62 % 0 lf 1021,5 hPa 0,0 l/m 2 min 0 min 790 W/m 20,9 km/h (4 Bft)
06.07.2015 11:20 22,2 C 26,1 C 60 % 0 lf 1021,6 hPa 0,0 l/m 2 min 0 min 791 W/m 23,0 km/h (4 Bft)
06.07.2015 11:22 22,2 C 26,7 C 61 % 0 lf 1021,5 hPa 0,0 l/m 2 min 0 min 795 W/m 16,7 km/h (3 Bft)
06.07.2015 11:24 22,3 C 26,1 C 60 % 0 lf 1021,5 hPa 0,0 l/m 2 min 0 min 800 W/m 18,8 km/h (3 Bft)
06.07.2015 11:26 22,4 C 25,6 C 59 % 0 lf 1021,5 hPa 0,0 l/m 2 min 0 min 806 W/m 23,0 km/h (4 Bft)
06.07.2015 11:28 22,4 C 26,7 C 59 % 0 lf 1021,5 hPa 0,0 l/m 2 min 0 min 808 W/m 16,7 km/h (3 Bft)
06.07.2015 11:30 22,5 C 26,7 C 58 % 0 lf 1021,5 hPa 0,0 l/m 2 min 0 min 811 W/m 20,9 km/h (4 Bft)
06.07.2015 11:32 22,4 C 26,1 C 59 % 0 lf 1021,5 hPa 0,0 l/m 2 min 0 min 815 W/m 23,0 km/h (4 Bft)
06.07.2015 11:34 22,4 C 26,1 C 59 % 0 lf 1021,5 hPa 0,0 l/m 2 min 0 min 817 W/m 18,8 km/h (3 Bft)
06.07.2015 11:36 22,4 C 25,0 C 58 % 0 lf 1021,5 hPa 0,0 l/m 2 min 0 min 820 W/m 18,8 km/h (3 Bft)
06.07.2015 11:38 22,4 C 23,9 C 58 % 0 lf 1021,5 hPa 0,0 l/m 2 min 0 min 823 W/m 20,9 km/h (4 Bft)
06.07.2015 11:40 22,4 C 23,3 C 56 % 0 lf 1021,5 hPa 0,0 l/m 2 min 0 min 826 W/m 14,6 km/h (3 Bft)
06.07.2015 11:42 22,4 C 23,3 C 57 % 0 lf 1021,5 hPa 0,0 l/m 2 min 0 min 829 W/m 20,9 km/h (4 Bft)
06.07.2015 11:44 22,4 C 23,9 C 56 % 0 lf 1021,4 hPa 0,0 l/m 2 min 0 min 831 W/m 25,1 km/h (4 Bft)
06.07.2015 11:46 22,4 C 25,6 C 59 % 0 lf 1021,4 hPa 0,0 l/m 2 min 0 min 831 W/m 18,8 km/h (3 Bft)
06.07.2015 11:48 22,4 C 26,7 C 57 % 0 lf 1021,4 hPa 0,0 l/m 2 min 0 min 837 W/m 29,3 km/h (5 Bft)
06.07.2015 11:50 22,7 C 26,7 C 56 % 0 lf 1021,4 hPa 0,0 l/m 2 min 0 min 828 W/m 23,0 km/h (4 Bft)
06.07.2015 11:52 22,9 C 27,2 C 57 % 0 lf 1021,4 hPa 0,0 l/m 2 min 0 min 735 W/m 14,6 km/h (3 Bft)
06.07.2015 11:54 23,0 C 27,8 C 56 % 0 lf 1021,4 hPa 0,0 l/m 2 min 0 min 735 W/m 16,7 km/h (3 Bft)
06.07.2015 11:56 23,2 C 28,3 C 56 % 0 lf 1021,3 hPa 0,0 l/m 2 min 0 min 774 W/m 16,7 km/h (3 Bft)
06.07.2015 11:58 23,4 C 28,3 C 56 % 0 lf 1021,3 hPa 0,0 l/m 2 min 0 min 832 W/m 25,1 km/h (4 Bft)
06.07.2015 12:00 23,4 C 27,8 C 53 % 0 lf 1021,4 hPa 0,0 l/m 2 min 0 min 852 W/m 25,1 km/h (4 Bft)
06.07.2015 12:02 23,4 C 27,8 C 57 % 0 lf 1021,4 hPa 0,0 l/m 2 min 0 min 854 W/m 12,6 km/h (3 Bft)
06.07.2015 12:05 23,4 C 27,8 C 54 % 0 lf 1021,3 hPa 0,0 l/m 2 min 0 min 860 W/m 18,8 km/h (3 Bft)
06.07.2015 12:06 23,3 C 27,8 C 55 % 0 lf 1021,3 hPa 0,0 l/m 1 min 0 min 860 W/m 23,0 km/h (4 Bft)
06.07.2015 12:08 23,3 C 27,8 C 55 % 0 lf 1021,3 hPa 0,0 l/m 2 min 0 min 869 W/m 23,0 km/h (4 Bft)
06.07.2015 12:10 23,2 C 27,8 C 54 % 0 lf 1021,2 hPa 0,0 l/m 2 min 0 min 868 W/m 23,0 km/h (4 Bft)
06.07.2015 12:12 23,3 C 28,3 C 55 % 0 lf 1021,2 hPa 0,0 l/m 2 min 0 min 866 W/m 10,5 km/h (2 Bft)
06.07.2015 12:14 23,4 C 28,3 C 56 % 0 lf 1021,2 hPa 0,0 l/m 2 min 0 min 871 W/m 27,2 km/h (4 Bft)
06.07.2015 12:16 23,4 C 28,3 C 53 % 0 lf 1021,2 hPa 0,0 l/m 2 min 0 min 873 W/m 25,1 km/h (4 Bft)
06.07.2015 12:18 23,4 C 28,3 C 53 % 0 lf 1021,3 hPa 0,0 l/m 2 min 0 min 876 W/m 23,0 km/h (4 Bft)
06.07.2015 12:20 23,4 C 28,3 C 53 % 0 lf 1021,2 hPa 0,0 l/m 2 min 0 min 863 W/m 16,7 km/h (3 Bft)
06.07.2015 12:22 23,4 C 28,3 C 54 % 0 lf 1021,2 hPa 0,0 l/m 2 min 0 min 854 W/m 18,8 km/h (3 Bft)
06.07.2015 12:24 23,6 C 28,3 C 55 % 0 lf 1021,2 hPa 0,0 l/m 0 min 0 min 251 W/m 18,8 km/h (3 Bft)
06.07.2015 12:26 23,5 C 28,9 C 54 % 0 lf 1021,1 hPa 0,0 l/m 0 min 0 min 255 W/m 20,9 km/h (4 Bft)
06.07.2015 12:28 23,6 C 28,3 C 53 % 0 lf 1021,1 hPa 0,0 l/m 2 min 0 min 885 W/m 23,0 km/h (4 Bft)
06.07.2015 12:30 23,6 C 27,8 C 52 % 0 lf 1021,0 hPa 0,0 l/m 2 min 0 min 889 W/m 20,9 km/h (4 Bft)
06.07.2015 12:32 23,6 C 27,8 C 53 % 0 lf 1021,0 hPa 0,0 l/m 2 min 0 min 900 W/m 18,8 km/h (3 Bft)
06.07.2015 12:34 23,6 C 27,2 C 53 % 0 lf 1021,0 hPa 0,0 l/m 2 min 0 min 903 W/m 35,6 km/h (5 Bft)
06.07.2015 12:36 23,6 C 26,7 C 54 % 0 lf 1021,1 hPa 0,0 l/m 2 min 0 min 904 W/m 25,1 km/h (4 Bft)
06.07.2015 12:38 23,7 C 26,7 C 55 % 0 lf 1021,1 hPa 0,0 l/m 2 min 0 min 913 W/m 20,9 km/h (4 Bft)
06.07.2015 12:40 24,0 C 27,2 C 55 % 0 lf 1021,1 hPa 0,0 l/m 2 min 0 min 936 W/m 20,9 km/h (4 Bft)
06.07.2015 12:42 24,2 C 27,2 C 52 % 0 lf 1021,2 hPa 0,0 l/m 2 min 0 min 924 W/m 27,2 km/h (4 Bft)
06.07.2015 12:44 24,2 C 27,2 C 51 % 0 lf 1021,0 hPa 0,0 l/m 2 min 0 min 920 W/m 23,0 km/h (4 Bft)
06.07.2015 12:46 24,1 C 27,2 C 51 % 0 lf 1021,0 hPa 0,0 l/m 2 min 0 min 933 W/m 27,2 km/h (4 Bft)
06.07.2015 12:48 24,0 C 26,1 C 51 % 0 lf 1021,0 hPa 0,0 l/m 2 min 0 min 950 W/m 27,2 km/h (4 Bft)
06.07.2015 12:50 24,0 C 26,1 C 52 % 0 lf 1021,0 hPa 0,0 l/m 2 min 0 min 943 W/m 31,4 km/h (5 Bft)
06.07.2015 12:52 24,0 C 25,6 C 51 % 0 lf 1020,9 hPa 0,0 l/m 2 min 0 min 928 W/m 39,7 km/h (6 Bft)
06.07.2015 12:54 24,0 C 25,6 C 53 % 0 lf 1021,2 hPa 0,0 l/m 2 min 0 min 932 W/m 35,6 km/h (5 Bft)
06.07.2015 12:56 24,2 C 25,6 C 53 % 0 lf 1021,2 hPa 0,0 l/m 2 min 0 min 949 W/m 16,7 km/h (3 Bft)
06.07.2015 12:58 24,4 C 25,0 C 52 % 0 lf 1021,1 hPa 0,0 l/m 2 min 0 min 986 W/m 25,1 km/h (4 Bft)
06.07.2015 13:00 24,4 C 24,4 C 52 % 0 lf 1021,0 hPa 0,0 l/m 2 min 0 min 944 W/m 25,1 km/h (4 Bft)
06.07.2015 13:02 24,4 C 24,4 C 52 % 0 lf 1020,9 hPa 0,0 l/m 0 min 0 min 236 W/m 16,7 km/h (3 Bft)
06.07.2015 13:04 24,2 C 24,4 C 54 % 0 lf 1020,9 hPa 0,0 l/m 2 min 0 min 478 W/m 16,7 km/h (3 Bft)
06.07.2015 13:06 24,2 C 24,4 C 53 % 0 lf 1021,0 hPa 0,0 l/m 2 min 0 min 949 W/m 29,3 km/h (5 Bft)
06.07.2015 13:08 24,3 C 24,4 C 53 % 0 lf 1021,0 hPa 0,0 l/m 2 min 0 min 933 W/m 27,2 km/h (4 Bft)
06.07.2015 13:10 24,4 C 25,0 C 52 % 0 lf 1021,0 hPa 0,0 l/m 2 min 0 min 932 W/m 29,3 km/h (5 Bft)
06.07.2015 13:12 24,6 C 25,0 C 53 % 0 lf 1021,0 hPa 0,0 l/m 2 min 0 min 941 W/m 25,1 km/h (4 Bft)
06.07.2015 13:14 24,7 C 25,6 C 52 % 0 lf 1020,9 hPa 0,0 l/m 2 min 0 min 960 W/m 16,7 km/h (3 Bft)
06.07.2015 13:16 24,9 C 26,1 C 53 % 0 lf 1020,9 hPa 0,0 l/m 2 min 0 min 974 W/m 27,2 km/h (4 Bft)
06.07.2015 13:18 24,9 C 25,6 C 52 % 0 lf 1021,0 hPa 0,0 l/m 2 min 0 min 918 W/m 20,9 km/h (4 Bft)
06.07.2015 13:20 24,7 C 25,6 C 50 % 0 lf 1020,9 hPa 0,0 l/m 2 min 0 min 939 W/m 20,9 km/h (4 Bft)
06.07.2015 13:22 24,7 C 26,7 C 53 % 0 lf 1020,9 hPa 0,0 l/m 2 min 0 min 1001 W/m 18,8 km/h (3 Bft)
06.07.2015 13:24 24,9 C 26,7 C 54 % 0 lf 1020,9 hPa 0,0 l/m 2 min 0 min 998 W/m 16,7 km/h (3 Bft)
06.07.2015 13:26 25,1 C 26,1 C 53 % 0 lf 1020,9 hPa 0,0 l/m 2 min 0 min 998 W/m 16,7 km/h (3 Bft)
06.07.2015 13:28 25,1 C 25,6 C 51 % 0 lf 1020,8 hPa 0,0 l/m 2 min 0 min 998 W/m 31,4 km/h (5 Bft)
06.07.2015 13:30 25,2 C 25,6 C 52 % 0 lf 1020,8 hPa 0,0 l/m 2 min 0 min 1003 W/m 20,9 km/h (4 Bft)
06.07.2015 13:32 25,3 C 25,0 C 52 % 0 lf 1020,8 hPa 0,0 l/m 2 min 0 min 803 W/m 25,1 km/h (4 Bft)
06.07.2015 13:34 25,4 C 24,4 C 51 % 0 lf 1020,9 hPa 0,0 l/m 0 min 0 min 196 W/m 16,7 km/h (3 Bft)
06.07.2015 13:36 25,4 C 24,4 C 50 % 0 lf 1020,9 hPa 0,0 l/m 2 min 0 min 601 W/m 18,8 km/h (3 Bft)
06.07.2015 13:38 25,5 C 24,4 C 52 % 0 lf 1020,8 hPa 0,0 l/m 2 min 0 min 941 W/m 29,3 km/h (5 Bft)
06.07.2015 13:40 25,6 C 24,4 C 49 % 0 lf 1020,9 hPa 0,0 l/m 2 min 0 min 927 W/m 29,3 km/h (5 Bft)
06.07.2015 13:42 25,6 C 23,9 C 48 % 0 lf 1020,8 hPa 0,0 l/m 2 min 0 min 891 W/m 25,1 km/h (4 Bft)
06.07.2015 13:44 25,6 C 23,9 C 49 % 0 lf 1020,9 hPa 0,0 l/m 2 min 0 min 891 W/m 27,2 km/h (4 Bft)
06.07.2015 13:46 25,6 C 24,4 C 49 % 0 lf 1020,8 hPa 0,0 l/m 2 min 0 min 968 W/m 27,2 km/h (4 Bft)
06.07.2015 13:48 25,7 C 24,4 C 50 % 0 lf 1020,7 hPa 0,0 l/m 2 min 0 min 992 W/m 16,7 km/h (3 Bft)
06.07.2015 13:50 25,7 C 24,4 C 50 % 0 lf 1020,8 hPa 0,0 l/m 2 min 0 min 976 W/m 16,7 km/h (3 Bft)
06.07.2015 13:52 25,8 C 24,4 C 50 % 0 lf 1020,8 hPa 0,0 l/m 2 min 0 min 932 W/m 20,9 km/h (4 Bft)
06.07.2015 13:54 25,8 C 24,4 C 50 % 0 lf 1020,8 hPa 0,0 l/m 2 min 0 min 882 W/m 25,1 km/h (4 Bft)
06.07.2015 13:56 25,9 C 24,4 C 49 % 0 lf 1020,8 hPa 0,0 l/m 2 min 0 min 882 W/m 18,8 km/h (3 Bft)
06.07.2015 13:58 25,9 C 24,4 C 51 % 0 lf 1020,8 hPa 0,0 l/m 2 min 0 min 927 W/m 35,6 km/h (5 Bft)
06.07.2015 14:00 25,8 C 24,4 C 49 % 0 lf 1020,8 hPa 0,0 l/m 2 min 0 min 938 W/m 29,3 km/h (5 Bft)
06.07.2015 14:02 25,9 C 24,4 C 49 % 0 lf 1020,8 hPa 0,0 l/m 2 min 0 min 937 W/m 16,7 km/h (3 Bft)
06.07.2015 14:04 26,0 C 25,0 C 50 % 0 lf 1020,8 hPa 0,0 l/m 2 min 0 min 955 W/m 23,0 km/h (4 Bft)
06.07.2015 14:06 26,1 C 23,9 C 48 % 0 lf 1020,8 hPa 0,0 l/m 2 min 0 min 845 W/m 20,9 km/h (4 Bft)
06.07.2015 14:08 26,0 C 23,9 C 51 % 0 lf 1020,8 hPa 0,0 l/m 0 min 0 min 227 W/m 16,7 km/h (3 Bft)
06.07.2015 14:10 26,1 C 24,4 C 50 % 0 lf 1020,8 hPa 0,0 l/m 2 min 0 min 557 W/m 25,1 km/h (4 Bft)
06.07.2015 14:12 26,1 C 24,4 C 47 % 0 lf 1020,8 hPa 0,0 l/m 2 min 0 min 942 W/m 16,7 km/h (3 Bft)
06.07.2015 14:14 26,2 C 26,1 C 51 % 0 lf 1020,7 hPa 0,0 l/m 2 min 0 min 952 W/m 20,9 km/h (4 Bft)
06.07.2015 14:16 26,3 C 27,8 C 50 % 0 lf 1020,8 hPa 0,0 l/m 2 min 0 min 968 W/m 23,0 km/h (4 Bft)
06.07.2015 14:18 26,5 C 28,3 C 52 % 0 lf 1020,8 hPa 0,0 l/m 2 min 0 min 977 W/m 20,9 km/h (4 Bft)
06.07.2015 14:20 26,6 C 27,8 C 48 % 0 lf 1020,8 hPa 0,0 l/m 2 min 0 min 953 W/m 16,7 km/h (3 Bft)
06.07.2015 14:22 26,7 C 26,7 C 49 % 0 lf 1020,8 hPa 0,0 l/m 2 min 0 min 931 W/m 18,8 km/h (3 Bft)
06.07.2015 14:24 26,7 C 25,6 C 49 % 0 lf 1020,7 hPa 0,0 l/m 2 min 0 min 911 W/m 27,2 km/h (4 Bft)
06.07.2015 14:26 26,8 C 25,6 C 49 % 0 lf 1020,8 hPa 0,0 l/m 2 min 0 min 907 W/m 20,9 km/h (4 Bft)
06.07.2015 14:28 26,8 C 25,6 C 48 % 0 lf 1020,7 hPa 0,0 l/m 2 min 0 min 912 W/m 18,8 km/h (3 Bft)
06.07.2015 14:30 26,8 C 25,0 C 48 % 0 lf 1020,8 hPa 0,0 l/m 2 min 0 min 909 W/m 23,0 km/h (4 Bft)
06.07.2015 14:32 26,8 C 25,6 C 47 % 0 lf 1020,7 hPa 0,0 l/m 2 min 0 min 917 W/m 16,7 km/h (3 Bft)
06.07.2015 14:34 26,9 C 25,6 C 47 % 0 lf 1020,7 hPa 0,0 l/m 2 min 0 min 915 W/m 14,6 km/h (3 Bft)
06.07.2015 14:36 27,0 C 25,6 C 49 % 0 lf 1020,7 hPa 0,0 l/m 2 min 0 min 941 W/m 16,7 km/h (3 Bft)
06.07.2015 14:38 27,1 C 25,6 C 50 % 0 lf 1020,6 hPa 0,0 l/m 2 min 0 min 935 W/m 14,6 km/h (3 Bft)
06.07.2015 14:40 27,2 C 25,6 C 48 % 0 lf 1020,6 hPa 0,0 l/m 2 min 0 min 955 W/m 18,8 km/h (3 Bft)
06.07.2015 14:42 27,3 C 25,6 C 46 % 0 lf 1020,6 hPa 0,0 l/m 2 min 0 min 965 W/m 18,8 km/h (3 Bft)
06.07.2015 14:44 27,3 C 25,6 C 47 % 0 lf 1020,5 hPa 0,0 l/m 2 min 0 min 963 W/m 16,7 km/h (3 Bft)
06.07.2015 14:46 27,2 C 25,6 C 46 % 0 lf 1020,4 hPa 0,0 l/m 2 min 0 min 914 W/m 8,4 km/h (2 Bft)
06.07.2015 14:48 27,3 C 25,0 C 48 % 0 lf 1020,4 hPa 0,0 l/m 2 min 0 min 570 W/m 27,2 km/h (4 Bft)
06.07.2015 14:50 27,2 C 25,0 C 46 % 0 lf 1020,5 hPa 0,0 l/m 2 min 0 min 960 W/m 16,7 km/h (3 Bft)
06.07.2015 14:52 27,2 C 25,0 C 45 % 0 lf 1020,5 hPa 0,0 l/m 2 min 0 min 934 W/m 18,8 km/h (3 Bft)
06.07.2015 14:54 27,1 C 25,0 C 47 % 0 lf 1020,5 hPa 0,0 l/m 2 min 0 min 919 W/m 23,0 km/h (4 Bft)
06.07.2015 14:56 27,1 C 25,0 C 47 % 0 lf 1020,6 hPa 0,0 l/m 2 min 0 min 904 W/m 20,9 km/h (4 Bft)
06.07.2015 14:58 27,1 C 25,6 C 47 % 0 lf 1020,5 hPa 0,0 l/m 2 min 0 min 889 W/m 16,7 km/h (3 Bft)
06.07.2015 15:00 27,1 C 25,6 C 47 % 0 lf 1020,5 hPa 0,0 l/m 2 min 0 min 885 W/m 16,7 km/h (3 Bft)
06.07.2015 15:02 27,1 C 25,6 C 47 % 0 lf 1020,4 hPa 0,0 l/m 2 min 0 min 884 W/m 12,6 km/h (3 Bft)
06.07.2015 15:04 27,1 C 25,0 C 46 % 0 lf 1020,3 hPa 0,0 l/m 2 min 0 min 884 W/m 14,6 km/h (3 Bft)
06.07.2015 15:06 27,1 C 25,0 C 45 % 0 lf 1020,3 hPa 0,0 l/m 2 min 0 min 884 W/m 10,5 km/h (2 Bft)
06.07.2015 15:08 27,1 C 25,6 C 47 % 0 lf 1020,3 hPa 0,0 l/m 0 min 0 min 373 W/m 8,4 km/h (2 Bft)
06.07.2015 15:10 27,1 C 25,0 C 48 % 0 lf 1020,3 hPa 0,0 l/m 0 min 0 min 262 W/m 12,6 km/h (3 Bft)
06.07.2015 15:12 27,1 C 25,6 C 48 % 0 lf 1020,3 hPa 0,0 l/m 2 min 0 min 775 W/m 18,8 km/h (3 Bft)
06.07.2015 15:14 27,1 C 25,6 C 47 % 0 lf 1020,3 hPa 0,0 l/m 2 min 0 min 946 W/m 14,6 km/h (3 Bft)
06.07.2015 15:16 27,1 C 25,6 C 49 % 0 lf 1020,3 hPa 0,0 l/m 2 min 0 min 909 W/m 23,0 km/h (4 Bft)
06.07.2015 15:18 27,1 C 25,6 C 47 % 0 lf 1020,3 hPa 0,0 l/m 2 min 0 min 868 W/m 18,8 km/h (3 Bft)
06.07.2015 15:20 27,1 C 25,6 C 47 % 0 lf 1020,3 hPa 0,0 l/m 2 min 0 min 854 W/m 18,8 km/h (3 Bft)
06.07.2015 15:22 27,1 C 25,6 C 47 % 0 lf 1020,4 hPa 0,0 l/m 2 min 0 min 848 W/m 23,0 km/h (4 Bft)
06.07.2015 15:24 27,1 C 25,6 C 48 % 0 lf 1020,3 hPa 0,0 l/m 2 min 0 min 841 W/m 20,9 km/h (4 Bft)
06.07.2015 15:26 27,1 C 25,6 C 46 % 0 lf 1020,3 hPa 0,0 l/m 2 min 0 min 840 W/m 23,0 km/h (4 Bft)
06.07.2015 15:28 27,1 C 25,6 C 46 % 0 lf 1020,3 hPa 0,0 l/m 2 min 0 min 840 W/m 8,4 km/h (2 Bft)
06.07.2015 15:30 27,1 C 25,6 C 47 % 0 lf 1020,3 hPa 0,0 l/m 2 min 0 min 837 W/m 16,7 km/h (3 Bft)
06.07.2015 15:32 27,2 C 25,6 C 47 % 0 lf 1020,2 hPa 0,0 l/m 2 min 0 min 832 W/m 18,8 km/h (3 Bft)
06.07.2015 15:34 27,2 C 25,6 C 47 % 0 lf 1020,3 hPa 0,0 l/m 2 min 0 min 831 W/m 14,6 km/h (3 Bft)
06.07.2015 15:36 27,2 C 25,0 C 46 % 0 lf 1020,2 hPa 0,0 l/m 2 min 0 min 831 W/m 14,6 km/h (3 Bft)
06.07.2015 15:38 27,2 C 25,6 C 47 % 0 lf 1020,2 hPa 0,0 l/m 2 min 0 min 846 W/m 12,6 km/h (3 Bft)
06.07.2015 15:40 27,2 C 25,6 C 47 % 0 lf 1020,2 hPa 0,0 l/m 2 min 0 min 858 W/m 29,3 km/h (5 Bft)
06.07.2015 15:42 27,2 C 25,0 C 46 % 0 lf 1020,2 hPa 0,0 l/m 2 min 0 min 641 W/m 18,8 km/h (3 Bft)
06.07.2015 15:44 27,1 C 25,0 C 46 % 0 lf 1020,2 hPa 0,0 l/m 0 min 0 min 199 W/m 16,7 km/h (3 Bft)
06.07.2015 15:46 27,1 C 24,4 C 45 % 0 lf 1020,2 hPa 0,0 l/m 0 min 0 min 309 W/m 16,7 km/h (3 Bft)
06.07.2015 15:48 26,9 C 24,4 C 46 % 0 lf 1020,2 hPa 0,0 l/m 0 min 0 min 219 W/m 14,6 km/h (3 Bft)
06.07.2015 15:50 26,9 C 25,0 C 47 % 0 lf 1020,2 hPa 0,0 l/m 2 min 0 min 547 W/m 6,3 km/h (2 Bft)
06.07.2015 15:52 26,9 C 25,6 C 48 % 0 lf 1020,1 hPa 0,0 l/m 2 min 0 min 873 W/m 12,6 km/h (3 Bft)
06.07.2015 15:54 26,9 C 25,6 C 48 % 0 lf 1020,0 hPa 0,0 l/m 2 min 0 min 862 W/m 10,5 km/h (2 Bft)
06.07.2015 15:56 26,9 C 26,1 C 48 % 0 lf 1020,1 hPa 0,0 l/m 2 min 0 min 854 W/m 12,6 km/h (3 Bft)
06.07.2015 15:58 27,1 C 27,2 C 48 % 0 lf 1020,0 hPa 0,0 l/m 2 min 0 min 860 W/m 10,5 km/h (2 Bft)
06.07.2015 16:00 27,2 C 28,9 C 48 % 0 lf 1020,1 hPa 0,0 l/m 2 min 0 min 839 W/m 16,7 km/h (3 Bft)
06.07.2015 16:02 27,3 C 30,0 C 47 % 0 lf 1020,0 hPa 0,0 l/m 2 min 0 min 843 W/m 14,6 km/h (3 Bft)
06.07.2015 16:04 27,4 C 29,4 C 49 % 0 lf 1020,0 hPa 0,0 l/m 2 min 0 min 837 W/m 14,6 km/h (3 Bft)
06.07.2015 16:06 27,4 C 26,7 C 46 % 0 lf 1020,0 hPa 0,0 l/m 2 min 0 min 570 W/m 23,0 km/h (4 Bft)
06.07.2015 16:08 27,3 C 28,3 C 47 % 0 lf 1020,0 hPa 0,0 l/m 0 min 0 min 165 W/m 14,6 km/h (3 Bft)
06.07.2015 16:10 27,3 C 28,9 C 48 % 0 lf 1019,9 hPa 0,0 l/m 2 min 0 min 598 W/m 14,6 km/h (3 Bft)
06.07.2015 16:12 27,3 C 29,4 C 46 % 0 lf 1019,8 hPa 0,0 l/m 2 min 0 min 809 W/m 12,6 km/h (3 Bft)
06.07.2015 16:14 27,3 C 30,0 C 46 % 0 lf 1019,9 hPa 0,0 l/m 2 min 0 min 798 W/m 8,4 km/h (2 Bft)
06.07.2015 16:16 27,4 C 31,1 C 46 % 0 lf 1019,8 hPa 0,0 l/m 2 min 0 min 803 W/m 18,8 km/h (3 Bft)
06.07.2015 16:18 27,4 C 31,1 C 46 % 0 lf 1019,9 hPa 0,0 l/m 2 min 0 min 812 W/m 29,3 km/h (5 Bft)
06.07.2015 16:20 27,4 C 31,1 C 47 % 0 lf 1019,9 hPa 0,0 l/m 2 min 0 min 819 W/m 16,7 km/h (3 Bft)
06.07.2015 16:22 27,4 C 29,4 C 45 % 0 lf 1019,8 hPa 0,0 l/m 2 min 0 min 756 W/m 16,7 km/h (3 Bft)
06.07.2015 16:24 27,4 C 27,8 C 45 % 0 lf 1019,9 hPa 0,0 l/m 0 min 0 min 305 W/m 16,7 km/h (3 Bft)
06.07.2015 16:26 27,4 C 26,7 C 46 % 0 lf 1019,8 hPa 0,0 l/m 0 min 0 min 216 W/m 18,8 km/h (3 Bft)
06.07.2015 16:28 27,3 C 26,1 C 48 % 0 lf 1019,8 hPa 0,0 l/m 0 min 0 min 216 W/m 16,7 km/h (3 Bft)
06.07.2015 16:30 27,3 C 25,6 C 45 % 0 lf 1019,8 hPa 0,0 l/m 2 min 0 min 705 W/m 14,6 km/h (3 Bft)
06.07.2015 16:32 27,3 C 25,6 C 46 % 0 lf 1019,8 hPa 0,0 l/m 2 min 0 min 789 W/m 10,5 km/h (2 Bft)
06.07.2015 16:34 27,2 C 25,6 C 45 % 0 lf 1019,8 hPa 0,0 l/m 2 min 0 min 773 W/m 6,3 km/h (2 Bft)
06.07.2015 16:36 27,2 C 26,1 C 46 % 0 lf 1019,7 hPa 0,0 l/m 2 min 0 min 759 W/m 10,5 km/h (2 Bft)
06.07.2015 16:38 27,3 C 26,1 C 46 % 0 lf 1019,7 hPa 0,0 l/m 2 min 0 min 750 W/m 12,6 km/h (3 Bft)
06.07.2015 16:40 27,3 C 26,1 C 47 % 0 lf 1019,7 hPa 0,0 l/m 2 min 0 min 742 W/m 18,8 km/h (3 Bft)
06.07.2015 16:42 27,4 C 26,1 C 48 % 0 lf 1019,7 hPa 0,0 l/m 2 min 0 min 725 W/m 23,0 km/h (4 Bft)
06.07.2015 16:44 27,5 C 26,1 C 47 % 0 lf 1019,7 hPa 0,0 l/m 2 min 0 min 711 W/m 23,0 km/h (4 Bft)
06.07.2015 16:46 27,6 C 25,6 C 46 % 0 lf 1019,7 hPa 0,0 l/m 2 min 0 min 706 W/m 18,8 km/h (3 Bft)
06.07.2015 16:48 27,6 C 25,6 C 44 % 0 lf 1019,8 hPa 0,0 l/m 2 min 0 min 700 W/m 23,0 km/h (4 Bft)
06.07.2015 16:50 27,6 C 25,6 C 45 % 0 lf 1019,8 hPa 0,0 l/m 2 min 0 min 701 W/m 14,6 km/h (3 Bft)
06.07.2015 16:52 27,6 C 25,6 C 44 % 0 lf 1019,6 hPa 0,0 l/m 2 min 0 min 708 W/m 16,7 km/h (3 Bft)
06.07.2015 16:54 27,6 C 25,6 C 45 % 0 lf 1019,6 hPa 0,0 l/m 2 min 0 min 710 W/m 16,7 km/h (3 Bft)
06.07.2015 16:56 27,6 C 25,6 C 44 % 0 lf 1019,6 hPa 0,0 l/m 2 min 0 min 702 W/m 12,6 km/h (3 Bft)
06.07.2015 16:58 27,7 C 25,6 C 45 % 0 lf 1019,6 hPa 0,0 l/m 2 min 0 min 692 W/m 6,3 km/h (2 Bft)
06.07.2015 17:00 27,7 C 25,6 C 43 % 0 lf 1019,5 hPa 0,0 l/m 2 min 0 min 687 W/m 6,3 km/h (2 Bft)
06.07.2015 17:02 27,8 C 25,6 C 44 % 0 lf 1019,5 hPa 0,0 l/m 2 min 0 min 680 W/m 12,6 km/h (3 Bft)
06.07.2015 17:04 27,8 C 25,0 C 44 % 0 lf 1019,5 hPa 0,0 l/m 2 min 0 min 670 W/m 16,7 km/h (3 Bft)
06.07.2015 17:06 27,8 C 25,0 C 45 % 0 lf 1019,5 hPa 0,0 l/m 2 min 0 min 662 W/m 18,8 km/h (3 Bft)
06.07.2015 17:08 27,8 C 25,0 C 44 % 0 lf 1019,5 hPa 0,0 l/m 2 min 0 min 658 W/m 18,8 km/h (3 Bft)
06.07.2015 17:10 27,8 C 25,0 C 44 % 0 lf 1019,4 hPa 0,0 l/m 2 min 0 min 654 W/m 16,7 km/h (3 Bft)
06.07.2015 17:12 27,8 C 25,0 C 44 % 0 lf 1019,5 hPa 0,0 l/m 2 min 0 min 649 W/m 16,7 km/h (3 Bft)
06.07.2015 17:14 27,8 C 25,0 C 44 % 0 lf 1019,5 hPa 0,0 l/m 2 min 0 min 645 W/m 14,6 km/h (3 Bft)
06.07.2015 17:16 27,8 C 25,0 C 43 % 0 lf 1019,4 hPa 0,0 l/m 2 min 0 min 639 W/m 10,5 km/h (2 Bft)
06.07.2015 17:18 27,7 C 25,0 C 44 % 0 lf 1019,4 hPa 0,0 l/m 2 min 0 min 628 W/m 20,9 km/h (4 Bft)
06.07.2015 17:20 27,7 C 24,4 C 44 % 0 lf 1019,4 hPa 0,0 l/m 2 min 0 min 620 W/m 23,0 km/h (4 Bft)
06.07.2015 17:22 27,7 C 24,4 C 44 % 0 lf 1019,5 hPa 0,0 l/m 2 min 0 min 612 W/m 14,6 km/h (3 Bft)
06.07.2015 17:24 27,7 C 24,4 C 46 % 0 lf 1019,4 hPa 0,0 l/m 2 min 0 min 604 W/m 18,8 km/h (3 Bft)
06.07.2015 17:26 27,6 C 24,4 C 43 % 0 lf 1019,3 hPa 0,0 l/m 2 min 0 min 597 W/m 14,6 km/h (3 Bft)
06.07.2015 17:28 27,6 C 24,4 C 45 % 0 lf 1019,2 hPa 0,0 l/m 2 min 0 min 596 W/m 10,5 km/h (2 Bft)
06.07.2015 17:30 27,6 C 24,4 C 45 % 0 lf 1019,1 hPa 0,0 l/m 2 min 0 min 592 W/m 8,4 km/h (2 Bft)
06.07.2015 17:32 27,6 C 24,4 C 46 % 0 lf 1019,2 hPa 0,0 l/m 2 min 0 min 586 W/m 10,5 km/h (2 Bft)
06.07.2015 17:34 27,5 C 24,4 C 45 % 0 lf 1019,3 hPa 0,0 l/m 2 min 0 min 582 W/m 12,6 km/h (3 Bft)
06.07.2015 17:36 27,5 C 24,4 C 44 % 0 lf 1019,3 hPa 0,0 l/m 2 min 0 min 576 W/m 14,6 km/h (3 Bft)
06.07.2015 17:38 27,4 C 23,9 C 45 % 0 lf 1019,3 hPa 0,0 l/m 2 min 0 min 570 W/m 16,7 km/h (3 Bft)
06.07.2015 17:40 27,3 C 23,9 C 44 % 0 lf 1019,3 hPa 0,0 l/m 2 min 0 min 567 W/m 23,0 km/h (4 Bft)
06.07.2015 17:42 27,3 C 23,9 C 44 % 0 lf 1019,2 hPa 0,0 l/m 2 min 0 min 559 W/m 18,8 km/h (3 Bft)
06.07.2015 17:44 27,2 C 23,9 C 43 % 0 lf 1019,2 hPa 0,0 l/m 2 min 0 min 555 W/m 14,6 km/h (3 Bft)
06.07.2015 17:46 27,2 C 23,9 C 44 % 0 lf 1019,2 hPa 0,0 l/m 2 min 0 min 553 W/m 16,7 km/h (3 Bft)
06.07.2015 17:48 27,1 C 23,9 C 44 % 0 lf 1019,2 hPa 0,0 l/m 2 min 0 min 547 W/m 12,6 km/h (3 Bft)
06.07.2015 17:50 27,0 C 23,3 C 44 % 0 lf 1019,2 hPa 0,0 l/m 2 min 0 min 532 W/m 14,6 km/h (3 Bft)
06.07.2015 17:52 27,0 C 23,3 C 44 % 0 lf 1019,2 hPa 0,0 l/m 2 min 0 min 531 W/m 8,4 km/h (2 Bft)
06.07.2015 17:54 26,9 C 23,3 C 44 % 0 lf 1019,2 hPa 0,0 l/m 2 min 0 min 523 W/m 10,5 km/h (2 Bft)
06.07.2015 17:56 26,9 C 23,3 C 44 % 0 lf 1019,1 hPa 0,0 l/m 2 min 0 min 515 W/m 10,5 km/h (2 Bft)
06.07.2015 17:58 26,9 C 23,3 C 45 % 0 lf 1019,1 hPa 0,0 l/m 2 min 0 min 512 W/m 16,7 km/h (3 Bft)
06.07.2015 18:00 26,8 C 23,3 C 45 % 0 lf 1019,0 hPa 0,0 l/m 2 min 0 min 512 W/m 20,9 km/h (4 Bft)
06.07.2015 18:02 26,7 C 23,3 C 45 % 0 lf 1019,1 hPa 0,0 l/m 2 min 0 min 504 W/m 18,8 km/h (3 Bft)
06.07.2015 18:05 26,6 C 23,3 C 46 % 0 lf 1019,0 hPa 0,0 l/m 2 min 0 min 492 W/m 12,6 km/h (3 Bft)
06.07.2015 18:08 26,6 C 23,3 C 45 % 0 lf 1019,0 hPa 0,0 l/m 2 min 0 min 490 W/m 12,6 km/h (3 Bft)
06.07.2015 18:10 26,4 C 23,3 C 46 % 0 lf 1019,0 hPa 0,0 l/m 2 min 0 min 488 W/m 14,6 km/h (3 Bft)
06.07.2015 18:12 26,4 C 23,3 C 46 % 0 lf 1018,9 hPa 0,0 l/m 2 min 0 min 488 W/m 10,5 km/h (2 Bft)
06.07.2015 18:14 26,3 C 23,3 C 45 % 0 lf 1018,9 hPa 0,0 l/m 2 min 0 min 480 W/m 12,6 km/h (3 Bft)
06.07.2015 18:16 26,3 C 23,3 C 46 % 0 lf 1018,9 hPa 0,0 l/m 2 min 0 min 476 W/m 12,6 km/h (3 Bft)
06.07.2015 18:18 26,2 C 23,3 C 45 % 0 lf 1018,8 hPa 0,0 l/m 2 min 0 min 468 W/m 8,4 km/h (2 Bft)
06.07.2015 18:20 26,2 C 22,8 C 47 % 0 lf 1018,8 hPa 0,0 l/m 2 min 0 min 456 W/m 12,6 km/h (3 Bft)
06.07.2015 18:22 26,2 C 23,3 C 46 % 0 lf 1018,9 hPa 0,0 l/m 2 min 0 min 449 W/m 10,5 km/h (2 Bft)
06.07.2015 18:24 26,1 C 23,3 C 47 % 0 lf 1018,8 hPa 0,0 l/m 2 min 0 min 447 W/m 12,6 km/h (3 Bft)
06.07.2015 18:26 26,1 C 23,3 C 47 % 0 lf 1018,7 hPa 0,0 l/m 2 min 0 min 443 W/m 16,7 km/h (3 Bft)
06.07.2015 18:28 26,1 C 23,3 C 47 % 0 lf 1018,7 hPa 0,0 l/m 2 min 0 min 438 W/m 12,6 km/h (3 Bft)
06.07.2015 18:30 26,0 C 22,8 C 47 % 0 lf 1018,8 hPa 0,0 l/m 2 min 0 min 433 W/m 16,7 km/h (3 Bft)
06.07.2015 18:32 25,9 C 22,8 C 47 % 0 lf 1018,7 hPa 0,0 l/m 2 min 0 min 427 W/m 16,7 km/h (3 Bft)
06.07.2015 18:34 25,9 C 22,8 C 47 % 0 lf 1018,8 hPa 0,0 l/m 2 min 0 min 421 W/m 16,7 km/h (3 Bft)
06.07.2015 18:36 25,8 C 22,8 C 47 % 0 lf 1018,7 hPa 0,0 l/m 2 min 0 min 416 W/m 6,3 km/h (2 Bft)
06.07.2015 18:38 25,8 C 22,8 C 47 % 0 lf 1018,6 hPa 0,0 l/m 2 min 0 min 409 W/m 10,5 km/h (2 Bft)
06.07.2015 18:40 25,8 C 22,8 C 47 % 0 lf 1018,6 hPa 0,0 l/m 2 min 0 min 404 W/m 20,9 km/h (4 Bft)
06.07.2015 18:42 25,8 C 22,8 C 47 % 0 lf 1018,6 hPa 0,0 l/m 2 min 0 min 398 W/m 14,6 km/h (3 Bft)
06.07.2015 18:44 25,7 C 22,8 C 47 % 0 lf 1018,5 hPa 0,0 l/m 2 min 0 min 392 W/m 16,7 km/h (3 Bft)
06.07.2015 18:46 25,6 C 22,8 C 48 % 0 lf 1018,5 hPa 0,0 l/m 2 min 0 min 383 W/m 14,6 km/h (3 Bft)
06.07.2015 18:48 25,6 C 22,8 C 48 % 0 lf 1018,5 hPa 0,0 l/m 2 min 0 min 379 W/m 10,5 km/h (2 Bft)
06.07.2015 18:50 25,6 C 22,8 C 48 % 0 lf 1018,5 hPa 0,0 l/m 2 min 0 min 374 W/m 14,6 km/h (3 Bft)
06.07.2015 18:52 25,5 C 22,8 C 48 % 0 lf 1018,6 hPa 0,0 l/m 2 min 0 min 367 W/m 14,6 km/h (3 Bft)
06.07.2015 18:54 25,4 C 22,8 C 47 % 0 lf 1018,6 hPa 0,0 l/m 2 min 0 min 360 W/m 10,5 km/h (2 Bft)
06.07.2015 18:56 25,4 C 22,8 C 47 % 0 lf 1018,6 hPa 0,0 l/m 2 min 0 min 357 W/m 10,5 km/h (2 Bft)
06.07.2015 18:58 25,4 C 22,8 C 48 % 0 lf 1018,5 hPa 0,0 l/m 2 min 0 min 354 W/m 10,5 km/h (2 Bft)
06.07.2015 19:00 25,3 C 22,8 C 48 % 0 lf 1018,5 hPa 0,0 l/m 2 min 0 min 350 W/m 10,5 km/h (2 Bft)
06.07.2015 19:02 25,3 C 22,2 C 48 % 0 lf 1018,5 hPa 0,0 l/m 2 min 0 min 345 W/m 4,2 km/h (1 Bft)
06.07.2015 19:04 25,3 C 22,2 C 48 % 0 lf 1018,4 hPa 0,0 l/m 2 min 0 min 339 W/m 12,6 km/h (3 Bft)
06.07.2015 19:06 25,3 C 22,8 C 48 % 0 lf 1018,4 hPa 0,0 l/m 2 min 0 min 335 W/m 10,5 km/h (2 Bft)
06.07.2015 19:08 25,2 C 22,8 C 48 % 0 lf 1018,4 hPa 0,0 l/m 2 min 0 min 329 W/m 12,6 km/h (3 Bft)
06.07.2015 19:10 25,2 C 22,8 C 48 % 0 lf 1018,3 hPa 0,0 l/m 2 min 0 min 322 W/m 16,7 km/h (3 Bft)
06.07.2015 19:12 25,2 C 22,8 C 48 % 0 lf 1018,3 hPa 0,0 l/m 2 min 0 min 316 W/m 12,6 km/h (3 Bft)
06.07.2015 19:14 25,1 C 22,8 C 48 % 0 lf 1018,3 hPa 0,0 l/m 2 min 0 min 312 W/m 14,6 km/h (3 Bft)
06.07.2015 19:16 25,1 C 22,8 C 48 % 0 lf 1018,3 hPa 0,0 l/m 2 min 0 min 306 W/m 10,5 km/h (2 Bft)
06.07.2015 19:18 25,1 C 22,2 C 48 % 0 lf 1018,2 hPa 0,0 l/m 2 min 0 min 301 W/m 10,5 km/h (2 Bft)
06.07.2015 19:20 25,1 C 22,2 C 48 % 0 lf 1018,2 hPa 0,0 l/m 2 min 0 min 297 W/m 10,5 km/h (2 Bft)
06.07.2015 19:22 25,1 C 22,2 C 49 % 0 lf 1018,2 hPa 0,0 l/m 2 min 0 min 292 W/m 8,4 km/h (2 Bft)
06.07.2015 19:24 25,1 C 22,2 C 49 % 0 lf 1018,1 hPa 0,0 l/m 2 min 0 min 285 W/m 8,4 km/h (2 Bft)
06.07.2015 19:26 25,0 C 22,2 C 49 % 0 lf 1018,2 hPa 0,0 l/m 2 min 0 min 277 W/m 8,4 km/h (2 Bft)
06.07.2015 19:28 25,0 C 22,2 C 50 % 0 lf 1018,1 hPa 0,0 l/m 2 min 0 min 272 W/m 4,2 km/h (1 Bft)
06.07.2015 19:30 25,0 C 22,2 C 50 % 0 lf 1018,2 hPa 0,0 l/m 2 min 0 min 264 W/m 6,3 km/h (2 Bft)
06.07.2015 19:32 25,0 C 22,2 C 50 % 0 lf 1018,0 hPa 0,0 l/m 2 min 0 min 258 W/m 8,4 km/h (2 Bft)
06.07.2015 19:34 25,0 C 22,2 C 50 % 0 lf 1018,1 hPa 0,0 l/m 2 min 0 min 255 W/m 14,6 km/h (3 Bft)
06.07.2015 19:36 24,9 C 22,2 C 49 % 0 lf 1018,1 hPa 0,0 l/m 2 min 0 min 250 W/m 10,5 km/h (2 Bft)
06.07.2015 19:38 24,9 C 22,2 C 49 % 0 lf 1018,0 hPa 0,0 l/m 2 min 0 min 245 W/m 8,4 km/h (2 Bft)
06.07.2015 19:40 24,9 C 22,2 C 48 % 0 lf 1018,1 hPa 0,0 l/m 2 min 0 min 240 W/m 8,4 km/h (2 Bft)
06.07.2015 19:42 24,9 C 22,2 C 49 % 0 lf 1018,1 hPa 0,0 l/m 2 min 0 min 234 W/m 4,2 km/h (1 Bft)
06.07.2015 19:44 24,9 C 22,2 C 49 % 0 lf 1018,2 hPa 0,0 l/m 2 min 0 min 228 W/m 4,2 km/h (1 Bft)
06.07.2015 19:46 24,9 C 22,2 C 49 % 0 lf 1018,2 hPa 0,0 l/m 2 min 0 min 221 W/m 10,5 km/h (2 Bft)
06.07.2015 19:48 24,9 C 22,2 C 50 % 0 lf 1018,1 hPa 0,0 l/m 2 min 0 min 214 W/m 4,2 km/h (1 Bft)
06.07.2015 19:50 24,9 C 22,2 C 49 % 0 lf 1018,0 hPa 0,0 l/m 2 min 0 min 207 W/m 4,2 km/h (1 Bft)
06.07.2015 19:52 24,8 C 22,2 C 49 % 0 lf 1018,0 hPa 0,0 l/m 2 min 0 min 200 W/m 8,4 km/h (2 Bft)
06.07.2015 19:54 24,8 C 22,2 C 49 % 0 lf 1018,2 hPa 0,0 l/m 2 min 0 min 195 W/m 8,4 km/h (2 Bft)
06.07.2015 19:56 24,8 C 21,7 C 50 % 0 lf 1018,0 hPa 0,0 l/m 2 min 0 min 190 W/m 6,3 km/h (2 Bft)
06.07.2015 19:58 24,8 C 21,7 C 50 % 0 lf 1018,0 hPa 0,0 l/m 2 min 0 min 184 W/m 8,4 km/h (2 Bft)
06.07.2015 20:00 24,8 C 21,7 C 50 % 0 lf 1018,1 hPa 0,0 l/m 2 min 0 min 178 W/m 10,5 km/h (2 Bft)
06.07.2015 20:02 24,7 C 21,7 C 49 % 0 lf 1018,1 hPa 0,0 l/m 2 min 0 min 173 W/m 10,5 km/h (2 Bft)
06.07.2015 20:04 24,7 C 21,7 C 50 % 0 lf 1018,1 hPa 0,0 l/m 2 min 0 min 166 W/m 6,3 km/h (2 Bft)
06.07.2015 20:06 24,7 C 21,7 C 51 % 0 lf 1018,0 hPa 0,0 l/m 2 min 0 min 160 W/m 6,3 km/h (2 Bft)
06.07.2015 20:08 24,7 C 21,7 C 51 % 0 lf 1018,0 hPa 0,0 l/m 2 min 0 min 155 W/m 6,3 km/h (2 Bft)
06.07.2015 20:10 24,7 C 21,7 C 50 % 0 lf 1018,0 hPa 0,0 l/m 2 min 0 min 149 W/m 4,2 km/h (1 Bft)
06.07.2015 20:12 24,6 C 21,7 C 50 % 0 lf 1018,0 hPa 0,0 l/m 2 min 0 min 144 W/m 4,2 km/h (1 Bft)
06.07.2015 20:14 24,6 C 21,7 C 50 % 0 lf 1018,0 hPa 0,0 l/m 2 min 0 min 138 W/m 4,2 km/h (1 Bft)
06.07.2015 20:16 24,6 C 21,7 C 51 % 0 lf 1018,0 hPa 0,0 l/m 2 min 0 min 132 W/m 8,4 km/h (2 Bft)
06.07.2015 20:18 24,6 C 21,7 C 50 % 0 lf 1018,0 hPa 0,0 l/m 2 min 0 min 128 W/m 12,6 km/h (3 Bft)
06.07.2015 20:20 24,6 C 21,7 C 49 % 0 lf 1017,9 hPa 0,0 l/m 2 min 0 min 122 W/m 10,5 km/h (2 Bft)
06.07.2015 20:22 24,5 C 21,7 C 50 % 0 lf 1017,9 hPa 0,0 l/m 2 min 0 min 116 W/m 10,5 km/h (2 Bft)
06.07.2015 20:24 24,5 C 22,2 C 49 % 0 lf 1017,9 hPa 0,0 l/m 2 min 0 min 112 W/m 12,6 km/h (3 Bft)
06.07.2015 20:26 24,4 C 22,2 C 50 % 0 lf 1017,9 hPa 0,0 l/m 2 min 0 min 107 W/m 8,4 km/h (2 Bft)
06.07.2015 20:28 24,4 C 21,7 C 50 % 0 lf 1017,9 hPa 0,0 l/m 2 min 0 min 101 W/m 6,3 km/h (2 Bft)
06.07.2015 20:30 24,4 C 22,2 C 50 % 0 lf 1017,8 hPa 0,0 l/m 2 min 0 min 96 W/m 4,2 km/h (1 Bft)
06.07.2015 20:32 24,4 C 21,7 C 49 % 0 lf 1017,7 hPa 0,0 l/m 2 min 0 min 92 W/m 4,2 km/h (1 Bft)
06.07.2015 20:34 24,4 C 21,7 C 49 % 0 lf 1017,7 hPa 0,0 l/m 2 min 0 min 86 W/m 4,2 km/h (1 Bft)
06.07.2015 20:36 24,4 C 21,1 C 50 % 0 lf 1017,7 hPa 0,0 l/m 2 min 0 min 82 W/m 4,2 km/h (1 Bft)
06.07.2015 20:38 24,4 C 21,1 C 50 % 0 lf 1017,7 hPa 0,0 l/m 2 min 0 min 77 W/m 2,1 km/h (1 Bft)
06.07.2015 20:40 24,4 C 21,1 C 50 % 0 lf 1017,7 hPa 0,0 l/m 2 min 0 min 72 W/m 6,3 km/h (2 Bft)
06.07.2015 20:42 24,4 C 20,6 C 50 % 0 lf 1017,7 hPa 0,0 l/m 0 min 0 min 66 W/m 4,2 km/h (1 Bft)
06.07.2015 20:44 24,3 C 20,6 C 51 % 0 lf 1017,7 hPa 0,0 l/m 0 min 0 min 62 W/m 2,1 km/h (1 Bft)
06.07.2015 20:46 24,3 C 20,6 C 52 % 0 lf 1017,7 hPa 0,0 l/m 0 min 0 min 58 W/m 4,2 km/h (1 Bft)
06.07.2015 20:48 24,3 C 20,6 C 52 % 0 lf 1017,7 hPa 0,0 l/m 0 min 0 min 54 W/m 4,2 km/h (1 Bft)
06.07.2015 20:50 24,3 C 20,6 C 52 % 0 lf 1017,7 hPa 0,0 l/m 0 min 0 min 52 W/m 4,2 km/h (1 Bft)
06.07.2015 20:52 24,3 C 20,0 C 52 % 0 lf 1017,6 hPa 0,0 l/m 0 min 0 min 49 W/m 4,2 km/h (1 Bft)
06.07.2015 20:54 24,2 C 20,0 C 52 % 0 lf 1017,6 hPa 0,0 l/m 0 min 0 min 46 W/m 4,2 km/h (1 Bft)
06.07.2015 20:56 24,2 C 20,0 C 52 % 0 lf 1017,6 hPa 0,0 l/m 0 min 0 min 43 W/m 4,2 km/h (1 Bft)
06.07.2015 20:58 24,2 C 20,0 C 52 % 0 lf 1017,6 hPa 0,0 l/m 0 min 0 min 40 W/m 4,2 km/h (1 Bft)
06.07.2015 21:00 24,1 C 20,0 C 52 % 0 lf 1017,6 hPa 0,0 l/m 0 min 0 min 38 W/m 4,2 km/h (1 Bft)
06.07.2015 21:02 24,1 C 20,0 C 53 % 0 lf 1017,6 hPa 0,0 l/m 0 min 0 min 35 W/m 4,2 km/h (1 Bft)
06.07.2015 21:04 24,1 C 20,0 C 53 % 0 lf 1017,7 hPa 0,0 l/m 0 min 0 min 33 W/m 4,2 km/h (1 Bft)
06.07.2015 21:06 24,1 C 20,0 C 53 % 0 lf 1017,7 hPa 0,0 l/m 0 min 0 min 30 W/m 2,1 km/h (1 Bft)
06.07.2015 21:08 24,0 C 19,4 C 53 % 0 lf 1017,7 hPa 0,0 l/m 0 min 0 min 28 W/m 2,1 km/h (1 Bft)
06.07.2015 21:10 23,9 C 19,4 C 54 % 0 lf 1017,7 hPa 0,0 l/m 0 min 0 min 26 W/m 2,1 km/h (1 Bft)
06.07.2015 21:12 23,9 C 19,4 C 54 % 0 lf 1017,7 hPa 0,0 l/m 0 min 0 min 25 W/m 2,1 km/h (1 Bft)
06.07.2015 21:14 23,9 C 19,4 C 54 % 0 lf 1017,6 hPa 0,0 l/m 0 min 0 min 23 W/m 4,2 km/h (1 Bft)
06.07.2015 21:16 23,8 C 19,4 C 54 % 0 lf 1017,6 hPa 0,0 l/m 0 min 0 min 21 W/m 2,1 km/h (1 Bft)
06.07.2015 21:18 23,7 C 19,4 C 55 % 0 lf 1017,6 hPa 0,0 l/m 0 min 0 min 21 W/m 4,2 km/h (1 Bft)
06.07.2015 21:20 23,7 C 19,4 C 55 % 0 lf 1017,7 hPa 0,0 l/m 0 min 0 min 19 W/m 2,1 km/h (1 Bft)
06.07.2015 21:22 23,7 C 18,9 C 55 % 0 lf 1017,6 hPa 0,0 l/m 0 min 0 min 19 W/m 0,0 km/h (0 Bft)
06.07.2015 21:24 23,6 C 18,9 C 55 % 0 lf 1017,6 hPa 0,0 l/m 0 min 0 min 18 W/m 0,0 km/h (0 Bft)
06.07.2015 21:26 23,6 C 18,9 C 55 % 0 lf 1017,5 hPa 0,0 l/m 0 min 0 min 18 W/m 0,0 km/h (0 Bft)
06.07.2015 21:28 23,5 C 18,9 C 56 % 0 lf 1017,5 hPa 0,0 l/m 0 min 0 min 16 W/m 0,0 km/h (0 Bft)
06.07.2015 21:30 23,4 C 18,9 C 56 % 0 lf 1017,5 hPa 0,0 l/m 0 min 0 min 15 W/m 0,0 km/h (0 Bft)
06.07.2015 21:32 23,3 C 18,9 C 56 % 0 lf 1017,6 hPa 0,0 l/m 0 min 0 min 14 W/m 2,1 km/h (1 Bft)
06.07.2015 21:34 23,3 C 18,9 C 56 % 0 lf 1017,5 hPa 0,0 l/m 0 min 0 min 13 W/m 2,1 km/h (1 Bft)
06.07.2015 21:36 23,2 C 18,3 C 56 % 0 lf 1017,6 hPa 0,0 l/m 0 min 0 min 12 W/m 2,1 km/h (1 Bft)
06.07.2015 21:38 23,2 C 18,3 C 56 % 0 lf 1017,5 hPa 0,0 l/m 0 min 0 min 12 W/m 2,1 km/h (1 Bft)
06.07.2015 21:40 23,1 C 18,3 C 57 % 0 lf 1017,5 hPa 0,0 l/m 0 min 0 min 11 W/m 2,1 km/h (1 Bft)
06.07.2015 21:42 23,1 C 18,3 C 57 % 0 lf 1017,5 hPa 0,0 l/m 0 min 0 min 11 W/m 2,1 km/h (1 Bft)
06.07.2015 21:44 22,9 C 18,3 C 57 % 0 lf 1017,5 hPa 0,0 l/m 0 min 0 min 9 W/m 2,1 km/h (1 Bft)
06.07.2015 21:46 22,9 C 18,3 C 57 % 0 lf 1017,5 hPa 0,0 l/m 0 min 0 min 8 W/m 2,1 km/h (1 Bft)
06.07.2015 21:48 22,8 C 18,3 C 58 % 0 lf 1017,6 hPa 0,0 l/m 0 min 0 min 7 W/m 2,1 km/h (1 Bft)
06.07.2015 21:50 22,7 C 18,3 C 58 % 0 lf 1017,6 hPa 0,0 l/m 0 min 0 min 6 W/m 2,1 km/h (1 Bft)
06.07.2015 21:52 22,6 C 18,3 C 59 % 0 lf 1017,6 hPa 0,0 l/m 0 min 0 min 5 W/m 2,1 km/h (1 Bft)
06.07.2015 21:54 22,6 C 18,3 C 59 % 0 lf 1017,6 hPa 0,0 l/m 0 min 0 min 5 W/m 2,1 km/h (1 Bft)
06.07.2015 21:56 22,5 C 17,8 C 59 % 0 lf 1017,6 hPa 0,0 l/m 0 min 0 min 4 W/m 2,1 km/h (1 Bft)
06.07.2015 21:58 22,4 C 17,8 C 60 % 0 lf 1017,7 hPa 0,0 l/m 0 min 0 min 0 W/m 2,1 km/h (1 Bft)
06.07.2015 22:00 22,3 C 17,8 C 60 % 0 lf 1017,6 hPa 0,0 l/m 0 min 0 min 0 W/m 2,1 km/h (1 Bft)
06.07.2015 22:02 22,3 C 17,8 C 60 % 0 lf 1017,6 hPa 0,0 l/m 0 min 0 min 0 W/m 0,0 km/h (0 Bft)
06.07.2015 22:04 22,2 C 17,8 C 60 % 0 lf 1017,5 hPa 0,0 l/m 0 min 0 min 0 W/m 2,1 km/h (1 Bft)
06.07.2015 22:06 22,2 C 17,8 C 60 % 0 lf 1017,5 hPa 0,0 l/m 0 min 0 min 0 W/m 2,1 km/h (1 Bft)
06.07.2015 22:08 22,1 C 17,8 C 60 % 0 lf 1017,5 hPa 0,0 l/m 0 min 0 min 0 W/m 0,0 km/h (0 Bft)
06.07.2015 22:10 22,0 C 17,2 C 60 % 0 lf 1017,5 hPa 0,0 l/m 0 min 0 min 0 W/m 0,0 km/h (0 Bft)
06.07.2015 22:12 21,9 C 17,2 C 61 % 0 lf 1017,5 hPa 0,0 l/m 0 min 0 min 0 W/m 2,1 km/h (1 Bft)
06.07.2015 22:14 21,9 C 17,2 C 61 % 0 lf 1017,5 hPa 0,0 l/m 0 min 0 min 0 W/m 2,1 km/h (1 Bft)
06.07.2015 22:16 21,8 C 17,2 C 61 % 0 lf 1017,5 hPa 0,0 l/m 0 min 0 min 0 W/m 2,1 km/h (1 Bft)
06.07.2015 22:18 21,8 C 17,2 C 62 % 0 lf 1017,5 hPa 0,0 l/m 0 min 0 min 0 W/m 2,1 km/h (1 Bft)
06.07.2015 22:20 21,7 C 17,2 C 62 % 0 lf 1017,5 hPa 0,0 l/m 0 min 0 min 0 W/m 2,1 km/h (1 Bft)
06.07.2015 22:22 21,7 C 17,2 C 63 % 0 lf 1017,5 hPa 0,0 l/m 0 min 0 min 0 W/m 4,2 km/h (1 Bft)
06.07.2015 22:24 21,6 C 17,2 C 63 % 0 lf 1017,5 hPa 0,0 l/m 0 min 0 min 0 W/m 2,1 km/h (1 Bft)
06.07.2015 22:26 21,4 C 17,2 C 63 % 0 lf 1017,5 hPa 0,0 l/m 0 min 0 min 0 W/m 2,1 km/h (1 Bft)
06.07.2015 22:28 21,4 C 17,2 C 63 % 0 lf 1017,4 hPa 0,0 l/m 0 min 0 min 0 W/m 2,1 km/h (1 Bft)
06.07.2015 22:30 21,3 C 17,2 C 63 % 0 lf 1017,4 hPa 0,0 l/m 0 min 0 min 0 W/m 2,1 km/h (1 Bft)
06.07.2015 22:32 21,3 C 17,2 C 63 % 0 lf 1017,4 hPa 0,0 l/m 0 min 0 min 0 W/m 2,1 km/h (1 Bft)
06.07.2015 22:34 21,2 C 16,7 C 64 % 0 lf 1017,4 hPa 0,0 l/m 0 min 0 min 0 W/m 2,1 km/h (1 Bft)
06.07.2015 22:36 21,2 C 16,7 C 64 % 0 lf 1017,4 hPa 0,0 l/m 0 min 0 min 0 W/m 2,1 km/h (1 Bft)
06.07.2015 22:38 21,1 C 16,7 C 64 % 0 lf 1017,4 hPa 0,0 l/m 0 min 0 min 0 W/m 2,1 km/h (1 Bft)
06.07.2015 22:40 21,0 C 16,7 C 64 % 0 lf 1017,4 hPa 0,0 l/m 0 min 0 min 0 W/m 0,0 km/h (0 Bft)
06.07.2015 22:42 21,0 C 16,7 C 64 % 0 lf 1017,4 hPa 0,0 l/m 0 min 0 min 0 W/m 0,0 km/h (0 Bft)
06.07.2015 22:44 20,9 C 16,7 C 64 % 0 lf 1017,4 hPa 0,0 l/m 0 min 0 min 0 W/m 0,0 km/h (0 Bft)
06.07.2015 22:46 20,8 C 16,7 C 64 % 0 lf 1017,4 hPa 0,0 l/m 0 min 0 min 0 W/m 0,0 km/h (0 Bft)
06.07.2015 22:48 20,8 C 16,7 C 64 % 0 lf 1017,4 hPa 0,0 l/m 0 min 0 min 0 W/m 2,1 km/h (1 Bft)
06.07.2015 22:50 20,7 C 16,7 C 65 % 0 lf 1017,4 hPa 0,0 l/m 0 min 0 min 0 W/m 2,1 km/h (1 Bft)
06.07.2015 22:52 20,7 C 16,7 C 65 % 0 lf 1017,4 hPa 0,0 l/m 0 min 0 min 0 W/m 2,1 km/h (1 Bft)
06.07.2015 22:54 20,6 C 16,7 C 65 % 0 lf 1017,4 hPa 0,0 l/m 0 min 0 min 0 W/m 2,1 km/h (1 Bft)
06.07.2015 22:56 20,6 C 16,7 C 66 % 0 lf 1017,4 hPa 0,0 l/m 0 min 0 min 0 W/m 2,1 km/h (1 Bft)
06.07.2015 22:58 20,5 C 16,7 C 66 % 0 lf 1017,3 hPa 0,0 l/m 0 min 0 min 0 W/m 2,1 km/h (1 Bft)
06.07.2015 23:00 20,4 C 16,7 C 66 % 0 lf 1017,3 hPa 0,0 l/m 0 min 0 min 0 W/m 2,1 km/h (1 Bft)
06.07.2015 23:02 20,4 C 16,7 C 66 % 0 lf 1017,3 hPa 0,0 l/m 0 min 0 min 0 W/m 2,1 km/h (1 Bft)
06.07.2015 23:04 20,3 C 16,7 C 66 % 0 lf 1017,3 hPa 0,0 l/m 0 min 0 min 0 W/m 2,1 km/h (1 Bft)
06.07.2015 23:06 20,3 C 16,1 C 67 % 0 lf 1017,3 hPa 0,0 l/m 0 min 0 min 0 W/m 2,1 km/h (1 Bft)
06.07.2015 23:08 20,2 C 16,1 C 67 % 0 lf 1017,3 hPa 0,0 l/m 0 min 0 min 0 W/m 2,1 km/h (1 Bft)
06.07.2015 23:10 20,2 C 16,1 C 67 % 0 lf 1017,2 hPa 0,0 l/m 0 min 0 min 0 W/m 2,1 km/h (1 Bft)
06.07.2015 23:12 20,2 C 16,1 C 67 % 0 lf 1017,3 hPa 0,0 l/m 0 min 0 min 0 W/m 2,1 km/h (1 Bft)
06.07.2015 23:14 20,1 C 16,1 C 68 % 0 lf 1017,2 hPa 0,0 l/m 0 min 0 min 0 W/m 4,2 km/h (1 Bft)
06.07.2015 23:16 20,0 C 16,1 C 68 % 0 lf 1017,2 hPa 0,0 l/m 0 min 0 min 0 W/m 4,2 km/h (1 Bft)
06.07.2015 23:18 19,9 C 16,1 C 68 % 0 lf 1017,2 hPa 0,0 l/m 0 min 0 min 0 W/m 2,1 km/h (1 Bft)
06.07.2015 23:20 19,9 C 16,1 C 68 % 0 lf 1017,2 hPa 0,0 l/m 0 min 0 min 0 W/m 2,1 km/h (1 Bft)
06.07.2015 23:22 19,8 C 16,1 C 68 % 0 lf 1017,1 hPa 0,0 l/m 0 min 0 min 0 W/m 2,1 km/h (1 Bft)
06.07.2015 23:24 19,8 C 16,1 C 68 % 0 lf 1017,2 hPa 0,0 l/m 0 min 0 min 0 W/m 2,1 km/h (1 Bft)
06.07.2015 23:26 19,7 C 16,1 C 68 % 0 lf 1017,2 hPa 0,0 l/m 0 min 0 min 0 W/m 2,1 km/h (1 Bft)
06.07.2015 23:28 19,7 C 16,1 C 69 % 0 lf 1017,1 hPa 0,0 l/m 0 min 0 min 0 W/m 2,1 km/h (1 Bft)
06.07.2015 23:30 19,7 C 16,1 C 69 % 0 lf 1017,1 hPa 0,0 l/m 0 min 0 min 0 W/m 2,1 km/h (1 Bft)
06.07.2015 23:32 19,6 C 16,1 C 69 % 0 lf 1017,1 hPa 0,0 l/m 0 min 0 min 0 W/m 2,1 km/h (1 Bft)
06.07.2015 23:34 19,6 C 16,1 C 69 % 0 lf 1017,1 hPa 0,0 l/m 0 min 0 min 0 W/m 2,1 km/h (1 Bft)
06.07.2015 23:36 19,5 C 16,1 C 69 % 0 lf 1017,0 hPa 0,0 l/m 0 min 0 min 0 W/m 0,0 km/h (0 Bft)
06.07.2015 23:38 19,4 C 16,1 C 70 % 0 lf 1017,1 hPa 0,0 l/m 0 min 0 min 0 W/m 0,0 km/h (0 Bft)
06.07.2015 23:40 19,4 C 16,1 C 71 % 0 lf 1017,0 hPa 0,0 l/m 0 min 0 min 0 W/m 0,0 km/h (0 Bft)
06.07.2015 23:42 19,3 C 16,1 C 71 % 0 lf 1017,1 hPa 0,0 l/m 0 min 0 min 0 W/m 0,0 km/h (0 Bft)
06.07.2015 23:44 19,3 C 16,1 C 71 % 0 lf 1017,0 hPa 0,0 l/m 0 min 0 min 0 W/m 0,0 km/h (0 Bft)
06.07.2015 23:46 19,3 C 16,1 C 72 % 0 lf 1016,9 hPa 0,0 l/m 0 min 0 min 0 W/m 0,0 km/h (0 Bft)
06.07.2015 23:48 19,2 C 16,1 C 72 % 0 lf 1016,8 hPa 0,0 l/m 0 min 0 min 0 W/m 0,0 km/h (0 Bft)
06.07.2015 23:50 19,2 C 15,6 C 72 % 0 lf 1016,9 hPa 0,0 l/m 0 min 0 min 0 W/m 0,0 km/h (0 Bft)
06.07.2015 23:52 19,1 C 15,6 C 73 % 0 lf 1016,9 hPa 0,0 l/m 0 min 0 min 0 W/m 0,0 km/h (0 Bft)
06.07.2015 23:54 19,1 C 15,6 C 73 % 0 lf 1016,9 hPa 0,0 l/m 0 min 0 min 0 W/m 0,0 km/h (0 Bft)
06.07.2015 23:56 19,0 C 15,6 C 74 % 0 lf 1016,9 hPa 0,0 l/m 0 min 0 min 0 W/m 0,0 km/h (0 Bft)
06.07.2015 23:58 18,9 C 15,6 C 74 % 0 lf 1016,9 hPa 0,0 l/m 0 min 0 min 0 W/m 0,0 km/h (0 Bft)
_ Min-Zeit 06:03 05:28 17:00 00:00 23:48 - - - - 21:22
Minimum _ 14,4 C 13,3 C 43 % 0 lf 1016,8 hPa - - - - 0,0 km/h (0 Bft)
_ Max-Zeit 17:02 16:16 02:56 00:00 09:26 00:00 06:03 00:00 13:30 12:52
Maximum _ 27,8 C 31,1 C 91 % 0 lf 1021,7 hPa 0,0 l/m 2 min 0 min 1003 W/m 39,7 km/h
SW (6 Bft)
Durchschnitt _ 21,0 C 19,8 C 68 % 0 lf 1019,7 hPa #0,0 l/m #14:06 h #0 min. 494 W/m 12,5 km/h (3 Bft)
© 2015 W. Hausmann